UA4670 / N121SY 7700 Squawk Report (12th of May, 2021)

Aircraft E75L Reg No. N121SY Age N/A
Model Emb-175 Jet engines 2 First flight 09-14
Registered 08-10-14 Rollout 09-14 Delivered 09-10-14
Construction No. 17000430 Line No. N/A Series 200LR
ADSHEX A05910 Airline name United Express Owner SkyWest Airlines
Airfield based Chicago O`Hare~IL~N First tracked N/A

Flight history for N121SY

Time Lat Lon Altitude Heading Speed Vertical Rate
2021-05-12 01:38:07 GMT 39.292889 -94.714417 0 26 2 0
2021-05-12 01:38:06 GMT 39.292881 -94.714447 0 26 2 0
2021-05-12 01:38:04 GMT 39.292881 -94.714462 0 26 2 0
2021-05-12 01:38:03 GMT 39.292870 -94.714470 0 26 2 0
2021-05-12 01:38:00 GMT 39.292858 -94.714500 0 26 2 0
2021-05-12 01:37:59 GMT 39.292850 -94.714523 0 26 2 0
2021-05-12 01:37:58 GMT 39.292839 -94.714531 0 26 2 0
2021-05-12 01:37:56 GMT 39.292831 -94.714561 0 26 1 0
2021-05-12 01:37:55 GMT 39.292820 -94.714577 0 26 0 0
2021-05-12 01:37:54 GMT 39.292850 -94.714561 0 26 4 0
2021-05-12 01:37:52 GMT 39.292839 -94.714600 0 26 4 0
2021-05-12 01:37:51 GMT 39.292789 -94.714607 0 26 1 0
2021-05-12 01:37:50 GMT 39.292820 -94.714577 0 26 5 0
2021-05-12 01:37:48 GMT 39.292789 -94.714600 0 26 6 0
2021-05-12 01:37:47 GMT 39.292782 -94.714607 0 26 7 0
2021-05-12 01:37:45 GMT 39.292721 -94.714638 0 25 7 0
2021-05-12 01:37:44 GMT 39.292690 -94.714668 0 25 7 0
2021-05-12 01:37:43 GMT 39.292671 -94.714684 0 24 7 0
2021-05-12 01:37:42 GMT 39.292641 -94.714699 0 23 7 0
2021-05-12 01:37:41 GMT 39.292622 -94.714722 0 22 8 0
2021-05-12 01:37:39 GMT 39.292561 -94.714737 0 21 8 0
2021-05-12 01:37:38 GMT 39.292519 -94.714760 0 17 9 0
2021-05-12 01:37:37 GMT 39.292488 -94.714813 0 8 8 0
2021-05-12 01:37:36 GMT 39.292450 -94.714844 0 3 8 0
2021-05-12 01:37:34 GMT 39.292381 -94.714867 0 356 7 0
2021-05-12 01:37:33 GMT 39.292351 -94.714859 0 355 7 0
2021-05-12 01:37:32 GMT 39.292301 -94.714859 0 346 10 0
2021-05-12 01:37:30 GMT 39.292221 -94.714882 0 320 7 0
2021-05-12 01:37:29 GMT 39.292210 -94.714859 0 318 9 0
2021-05-12 01:37:27 GMT 39.292130 -94.714828 0 300 11 0
2021-05-12 01:37:26 GMT 39.292110 -94.714783 0 297 11 0
2021-05-12 01:37:25 GMT 39.292068 -94.714737 0 290 12 0
2021-05-12 01:37:23 GMT 39.292011 -94.714630 0 282 13 0
2021-05-12 01:37:22 GMT 39.291969 -94.714493 0 270 14 0
2021-05-12 01:37:20 GMT 39.291981 -94.714417 0 276 15 0
2021-05-12 01:37:19 GMT 39.291969 -94.714363 0 275 19 0
2021-05-12 01:37:18 GMT 39.291969 -94.714256 0 276 20 0
2021-05-12 01:37:16 GMT 39.291950 -94.714027 0 277 20 0
2021-05-12 01:37:15 GMT 39.291939 -94.713921 0 277 20 0
2021-05-12 01:37:14 GMT 39.291931 -94.713814 0 276 20 0
2021-05-12 01:37:12 GMT 39.291889 -94.713448 0 276 20 0
2021-05-12 01:37:10 GMT 39.291882 -94.713318 0 276 20 0
2021-05-12 01:37:09 GMT 39.291870 -94.713203 0 277 20 0
2021-05-12 01:37:07 GMT 39.291840 -94.712967 0 275 20 0
2021-05-12 01:37:06 GMT 39.291840 -94.712868 0 276 21 0
2021-05-12 01:37:05 GMT 39.291828 -94.712753 0 276 21 0
2021-05-12 01:37:04 GMT 39.291821 -94.712631 0 275 21 0
2021-05-12 01:37:03 GMT 39.291801 -94.712372 0 275 21 0
2021-05-12 01:37:01 GMT 39.291790 -94.712242 0 276 21 0
2021-05-12 01:36:59 GMT 39.291771 -94.711990 0 275 21 0
2021-05-12 01:36:58 GMT 39.291759 -94.711861 0 275 21 0
2021-05-12 01:36:57 GMT 39.291752 -94.711731 0 275 20 0
2021-05-12 01:36:56 GMT 39.291729 -94.711472 0 275 19 0
2021-05-12 01:36:54 GMT 39.291721 -94.711357 0 275 19 0
2021-05-12 01:36:53 GMT 39.291710 -94.711243 0 276 19 0
2021-05-12 01:36:52 GMT 39.291698 -94.711113 0 275 18 0
2021-05-12 01:36:50 GMT 39.291679 -94.710899 0 275 18 0
2021-05-12 01:36:49 GMT 39.291679 -94.710793 0 276 18 0
2021-05-12 01:36:48 GMT 39.291672 -94.710678 0 277 17 0
2021-05-12 01:36:47 GMT 39.291641 -94.710457 0 275 17 0
2021-05-12 01:36:45 GMT 39.291641 -94.710358 0 274 17 0
2021-05-12 01:36:44 GMT 39.291618 -94.710251 0 273 16 0
2021-05-12 01:36:42 GMT 39.291618 -94.710052 0 275 16 0
2021-05-12 01:36:41 GMT 39.291618 -94.709969 0 276 16 0
2021-05-12 01:36:40 GMT 39.291599 -94.709892 0 272 17 0
2021-05-12 01:36:38 GMT 39.291611 -94.709679 0 283 17 0
2021-05-12 01:36:37 GMT 39.291580 -94.709557 0 276 15 0
2021-05-12 01:36:36 GMT 39.291561 -94.709457 0 274 14 0
2021-05-12 01:36:34 GMT 39.291550 -94.709282 0 275 14 0
2021-05-12 01:36:33 GMT 39.291550 -94.709198 0 277 13 0
2021-05-12 01:36:32 GMT 39.291550 -94.709106 0 277 13 0
2021-05-12 01:36:31 GMT 39.291538 -94.709030 0 277 13 0
2021-05-12 01:36:30 GMT 39.291519 -94.708878 0 277 13 0
2021-05-12 01:36:28 GMT 39.291519 -94.708794 0 280 13 0
2021-05-12 01:36:27 GMT 39.291519 -94.708710 0 281 12 0
2021-05-12 01:36:25 GMT 39.291500 -94.708572 0 282 13 0
2021-05-12 01:36:24 GMT 39.291481 -94.708504 0 283 13 0
2021-05-12 01:36:23 GMT 39.291481 -94.708420 0 287 13 0
2021-05-12 01:36:22 GMT 39.291470 -94.708344 0 287 12 0
2021-05-12 01:36:21 GMT 39.291451 -94.708183 0 304 11 0
2021-05-12 01:36:19 GMT 39.291431 -94.708130 0 308 11 0
2021-05-12 01:36:18 GMT 39.291409 -94.708061 0 311 10 0
2021-05-12 01:36:17 GMT 39.291351 -94.707939 0 336 9 0
2021-05-12 01:36:15 GMT 39.291321 -94.707909 0 339 10 0
2021-05-12 01:36:14 GMT 39.291279 -94.707878 0 343 9 0
2021-05-12 01:36:12 GMT 39.291210 -94.707840 0 2 11 0
2021-05-12 01:36:11 GMT 39.291149 -94.707809 0 9 9 0
2021-05-12 01:36:10 GMT 39.291111 -94.707809 0 13 8 0
2021-05-12 01:36:09 GMT 39.291019 -94.707817 0 17 8 0
2021-05-12 01:36:07 GMT 39.290981 -94.707832 0 18 7 0
2021-05-12 01:36:06 GMT 39.290951 -94.707840 0 19 7 0
2021-05-12 01:36:05 GMT 39.290920 -94.707863 0 19 7 0
2021-05-12 01:36:04 GMT 39.290852 -94.707893 0 18 6 0
2021-05-12 01:36:02 GMT 39.290810 -94.707909 0 18 5 0
2021-05-12 01:36:01 GMT 39.290791 -94.707909 0 19 5 0
2021-05-12 01:36:00 GMT 39.290741 -94.707939 0 16 4 0
2021-05-12 01:35:58 GMT 39.290722 -94.707947 0 17 4 0
2021-05-12 01:35:57 GMT 39.290699 -94.707947 0 18 4 0
2021-05-12 01:35:55 GMT 39.290668 -94.707970 0 17 4 0
2021-05-12 01:35:54 GMT 39.290649 -94.707977 0 16 4 0
2021-05-12 01:35:53 GMT 39.290619 -94.707993 0 14 3 0
2021-05-12 01:35:51 GMT 39.290588 -94.708000 0 10 3 0
2021-05-12 01:35:50 GMT 39.290581 -94.708008 0 9 3 0
2021-05-12 01:35:49 GMT 39.290569 -94.708008 0 9 3 0
2021-05-12 01:35:48 GMT 39.290550 -94.708008 0 8 4 0
2021-05-12 01:35:46 GMT 39.290531 -94.708023 0 5 4 0
2021-05-12 01:35:45 GMT 39.290508 -94.708031 0 4 4 0
2021-05-12 01:35:44 GMT 39.290482 -94.708038 0 1 4 0
2021-05-12 01:35:43 GMT 39.290470 -94.708031 0 3 5 0
2021-05-12 01:35:41 GMT 39.290451 -94.708031 0 5 5 0
2021-05-12 01:35:40 GMT 39.290428 -94.708038 0 3 5 0
2021-05-12 01:35:39 GMT 39.290409 -94.708038 0 7 5 0
2021-05-12 01:35:37 GMT 39.290371 -94.708031 0 12 7 0
2021-05-12 01:35:36 GMT 39.290352 -94.708038 0 10 8 0
2021-05-12 01:35:35 GMT 39.290321 -94.708038 0 18 9 0
2021-05-12 01:35:34 GMT 39.290291 -94.708038 0 19 10 0
2021-05-12 01:35:33 GMT 39.290211 -94.708061 0 23 10 0
2021-05-12 01:35:31 GMT 39.290169 -94.708092 0 23 10 0
2021-05-12 01:35:30 GMT 39.290119 -94.708107 0 24 10 0
2021-05-12 01:35:28 GMT 39.290039 -94.708160 0 27 11 0
2021-05-12 01:35:27 GMT 39.289982 -94.708183 0 31 9 0
2021-05-12 01:35:26 GMT 39.289940 -94.708229 0 23 8 0
2021-05-12 01:35:25 GMT 39.289879 -94.708237 0 33 12 0
2021-05-12 01:35:23 GMT 39.289822 -94.708267 0 39 13 0
2021-05-12 01:35:22 GMT 39.289768 -94.708298 0 45 12 0
2021-05-12 01:35:21 GMT 39.289719 -94.708344 0 47 13 0
2021-05-12 01:35:19 GMT 39.289631 -94.708443 0 56 13 0
2021-05-12 01:35:18 GMT 39.289589 -94.708504 0 65 13 0
2021-05-12 01:35:17 GMT 39.289551 -94.708549 0 70 13 0
2021-05-12 01:35:15 GMT 39.289490 -94.708672 0 77 15 0
2021-05-12 01:35:14 GMT 39.289459 -94.708763 0 83 15 0
2021-05-12 01:35:13 GMT 39.289452 -94.708847 0 83 15 0
2021-05-12 01:35:12 GMT 39.289440 -94.708939 0 90 15 0
2021-05-12 01:35:11 GMT 39.289429 -94.709106 0 96 19 0
2021-05-12 01:35:09 GMT 39.289452 -94.709190 0 93 25 0
2021-05-12 01:35:08 GMT 39.289452 -94.709297 0 95 29 0
2021-05-12 01:35:07 GMT 39.289459 -94.709618 0 98 39 0
2021-05-12 01:35:05 GMT 39.289501 -94.709793 0 94 45 0
2021-05-12 01:35:04 GMT 39.289509 -94.710022 0 95 52 128
2021-05-12 01:35:03 GMT 39.289509 -94.710297 0 97 56 128
2021-05-12 01:35:02 GMT 39.289581 -94.710922 650 95 70 128
2021-05-12 01:35:00 GMT 39.289619 -94.711311 650 94 75 128
2021-05-12 01:34:59 GMT 39.289619 -94.711700 650 96 83 -96
2021-05-12 01:34:57 GMT 39.289711 -94.712646 650 96 93 -192
2021-05-12 01:34:56 GMT 39.289761 -94.713188 650 95 96 0
2021-05-12 01:34:55 GMT 39.289799 -94.713737 650 96 100 0
2021-05-12 01:34:54 GMT 39.289841 -94.714302 650 96 107 0
2021-05-12 01:34:52 GMT 39.289959 -94.715561 650 96 109 0
2021-05-12 01:34:51 GMT 39.290039 -94.716187 650 95 109 -224
2021-05-12 01:34:50 GMT 39.290070 -94.716797 650 96 115 -224
2021-05-12 01:34:48 GMT 39.290199 -94.718170 650 95 115 0
2021-05-12 01:34:47 GMT 39.290241 -94.718826 650 96 120 0
2021-05-12 01:34:46 GMT 39.290310 -94.719551 650 95 119 0
2021-05-12 01:34:45 GMT 39.290359 -94.720261 650 96 120 0
2021-05-12 01:34:43 GMT 39.290482 -94.721626 650 95 126 0
2021-05-12 01:34:42 GMT 39.290550 -94.722366 650 95 126 -640
2021-05-12 01:34:41 GMT 39.290600 -94.723122 675 95 127 -640
2021-05-12 01:34:39 GMT 39.290710 -94.724632 675 96 126 -640
2021-05-12 01:34:38 GMT 39.290760 -94.725372 700 96 126 -640
2021-05-12 01:34:37 GMT 39.290829 -94.726128 700 96 126 -640
2021-05-12 01:34:36 GMT 39.290901 -94.726868 725 96 126 -640
2021-05-12 01:34:35 GMT 39.290958 -94.727638 725 96 124 -640
2021-05-12 01:34:33 GMT 39.291100 -94.729080 775 95 128 -640
2021-05-12 01:34:32 GMT 39.291130 -94.729881 775 96 122 -640
2021-05-12 01:34:31 GMT 39.291191 -94.730629 775 97 120 -640
2021-05-12 01:34:30 GMT 39.291271 -94.731300 800 96 125 -640
2021-05-12 01:34:29 GMT 39.291420 -94.732689 825 95 132 -640
2021-05-12 01:34:27 GMT 39.291500 -94.733459 825 95 133 -640
2021-05-12 01:34:26 GMT 39.291531 -94.734329 850 96 125 -640
2021-05-12 01:34:24 GMT 39.291641 -94.735809 875 96 125 -640
2021-05-12 01:34:23 GMT 39.291710 -94.736511 875 96 127 -640
2021-05-12 01:34:21 GMT 39.291840 -94.738022 900 96 127 -640
2021-05-12 01:34:20 GMT 39.291908 -94.738792 925 96 126 -640
2021-05-12 01:34:19 GMT 39.291969 -94.739548 925 96 125 -640
2021-05-12 01:34:17 GMT 39.292091 -94.741058 950 96 124 -640
2021-05-12 01:34:16 GMT 39.292171 -94.741783 950 96 125 -640
2021-05-12 01:34:15 GMT 39.292301 -94.743240 975 96 125 -640
2021-05-12 01:34:14 GMT 39.292351 -94.744003 1,000 96 125 -640
2021-05-12 01:34:12 GMT 39.292400 -94.744728 1,000 96 125 -640
2021-05-12 01:34:11 GMT 39.292461 -94.745491 1,025 96 124 -480
2021-05-12 01:34:09 GMT 39.292622 -94.746918 1,025 95 126 -480
2021-05-12 01:34:07 GMT 39.292751 -94.748367 1,050 95 128 -480
2021-05-12 01:34:06 GMT 39.292782 -94.749130 1,075 96 130 -480
2021-05-12 01:34:05 GMT 39.292850 -94.749939 1,075 95 125 -480
2021-05-12 01:34:04 GMT 39.292912 -94.750740 1,100 95 122 -480
2021-05-12 01:34:03 GMT 39.292992 -94.751457 1,100 94 121 -480
2021-05-12 01:34:01 GMT 39.293049 -94.752861 1,100 97 126 -480
2021-05-12 01:34:00 GMT 39.293110 -94.753609 1,125 98 126 -480
2021-05-12 01:33:58 GMT 39.293240 -94.755081 1,150 99 129 -480
2021-05-12 01:33:57 GMT 39.293388 -94.755836 1,150 96 127 -480
2021-05-12 01:33:56 GMT 39.293522 -94.757370 1,175 96 123 -480
2021-05-12 01:33:55 GMT 39.293560 -94.758133 1,200 98 123 -480
2021-05-12 01:33:53 GMT 39.293629 -94.758812 1,200 98 126 -480
2021-05-12 01:33:52 GMT 39.293751 -94.759560 1,225 96 125 -480
2021-05-12 01:33:50 GMT 39.293892 -94.761032 1,225 95 125 -480
2021-05-12 01:33:49 GMT 39.293949 -94.761772 1,250 95 125 -480
2021-05-12 01:33:48 GMT 39.294071 -94.763268 1,275 95 124 -480
2021-05-12 01:33:46 GMT 39.294128 -94.763977 1,275 95 125 -480
2021-05-12 01:33:45 GMT 39.294170 -94.764732 1,275 95 125 -480
2021-05-12 01:33:43 GMT 39.294270 -94.766212 1,300 96 125 -480
2021-05-12 01:33:42 GMT 39.294331 -94.766953 1,325 96 125 -480
2021-05-12 01:33:41 GMT 39.294392 -94.767677 1,325 96 125 -480
2021-05-12 01:33:40 GMT 39.294449 -94.768402 1,325 96 126 -480
2021-05-12 01:33:38 GMT 39.294590 -94.769913 1,350 96 125 -480
2021-05-12 01:33:37 GMT 39.294659 -94.770660 1,375 96 125 -480
2021-05-12 01:33:36 GMT 39.294720 -94.771408 1,375 95 124 -480
2021-05-12 01:33:34 GMT 39.294922 -94.773643 1,400 95 123 -480
2021-05-12 01:33:32 GMT 39.294979 -94.774368 1,425 95 123 -480
2021-05-12 01:33:31 GMT 39.295021 -94.775108 1,425 95 123 -480
2021-05-12 01:33:29 GMT 39.295132 -94.776588 1,450 95 123 -480
2021-05-12 01:33:28 GMT 39.295189 -94.777328 1,450 95 122 -480
2021-05-12 01:33:26 GMT 39.295292 -94.778801 1,475 95 122 -480
2021-05-12 01:33:25 GMT 39.295422 -94.780258 1,500 95 121 -480
2021-05-12 01:33:23 GMT 39.295471 -94.780983 1,500 95 121 -480
2021-05-12 01:33:21 GMT 39.295589 -94.782417 1,525 95 121 -480
2021-05-12 01:33:20 GMT 39.295631 -94.783142 1,550 95 121 -480
2021-05-12 01:33:18 GMT 39.295731 -94.784554 1,575 95 122 -480
2021-05-12 01:33:17 GMT 39.295799 -94.785263 1,575 95 123 -480
2021-05-12 01:33:16 GMT 39.295849 -94.785988 1,600 95 123 -480
2021-05-12 01:33:15 GMT 39.295921 -94.786728 1,600 95 122 -480
2021-05-12 01:33:13 GMT 39.296040 -94.788208 1,625 95 121 -480
2021-05-12 01:33:12 GMT 39.296089 -94.788940 1,650 95 120 -480
2021-05-12 01:33:10 GMT 39.296181 -94.790329 1,650 95 122 -1312
2021-05-12 01:33:09 GMT 39.296219 -94.791077 1,675 96 121 -1312
2021-05-12 01:33:08 GMT 39.296280 -94.791786 1,675 96 122 -1312
2021-05-12 01:33:07 GMT 39.296349 -94.792511 1,700 95 122 -1312
2021-05-12 01:33:06 GMT 39.296410 -94.793297 1,700 95 118 -1312
2021-05-12 01:33:05 GMT 39.296509 -94.794617 1,725 96 125 -1312
2021-05-12 01:33:03 GMT 39.296581 -94.795349 1,750 95 126 -1312
2021-05-12 01:33:01 GMT 39.296680 -94.796822 1,775 96 127 -1312
2021-05-12 01:33:00 GMT 39.296749 -94.797523 1,775 96 128 -1312
2021-05-12 01:32:59 GMT 39.296871 -94.799042 1,800 96 128 -1312
2021-05-12 01:32:57 GMT 39.296921 -94.799812 1,800 96 128 -1312
2021-05-12 01:32:56 GMT 39.296989 -94.800522 1,825 96 130 -1312
2021-05-12 01:32:55 GMT 39.297039 -94.801338 1,825 96 128 -1312
2021-05-12 01:32:53 GMT 39.297199 -94.802849 1,850 95 128 -1312
2021-05-12 01:32:52 GMT 39.297260 -94.803596 1,875 96 128 -1312
2021-05-12 01:32:51 GMT 39.297379 -94.805031 1,900 96 135 -1312
2021-05-12 01:32:49 GMT 39.297459 -94.805771 1,900 95 137 -1312
2021-05-12 01:32:48 GMT 39.297550 -94.806587 1,925 95 137 -1312
2021-05-12 01:32:47 GMT 39.297611 -94.807373 1,925 95 138 -1312
2021-05-12 01:32:46 GMT 39.297722 -94.808990 1,950 95 140 -1312
2021-05-12 01:32:44 GMT 39.297760 -94.809868 1,975 96 138 -1312
2021-05-12 01:32:43 GMT 39.297829 -94.810707 1,975 96 136 -1312
2021-05-12 01:32:42 GMT 39.297890 -94.811417 2,000 96 142 -1312
2021-05-12 01:32:40 GMT 39.298019 -94.813080 2,025 96 143 -1312
2021-05-12 01:32:39 GMT 39.298100 -94.813881 2,025 96 145 -1312
2021-05-12 01:32:38 GMT 39.298191 -94.814728 2,050 96 145 -1312
2021-05-12 01:32:37 GMT 39.298328 -94.816422 2,075 95 146 -1312
2021-05-12 01:32:35 GMT 39.298401 -94.817284 2,100 95 147 -1312
2021-05-12 01:32:34 GMT 39.298470 -94.818123 2,125 95 148 -1312
2021-05-12 01:32:33 GMT 39.298618 -94.819847 2,150 95 148 -1312
2021-05-12 01:32:31 GMT 39.298691 -94.820717 2,150 95 148 -1312
2021-05-12 01:32:30 GMT 39.298759 -94.821587 2,175 95 149 -1312
2021-05-12 01:32:29 GMT 39.298828 -94.822449 2,175 95 150 -1312
2021-05-12 01:32:27 GMT 39.298962 -94.824211 2,200 95 150 -1312
2021-05-12 01:32:26 GMT 39.299030 -94.825104 2,200 95 150 -1312
2021-05-12 01:32:24 GMT 39.299198 -94.827751 2,250 95 150 -1312
2021-05-12 01:32:22 GMT 39.299271 -94.828629 2,275 95 151 -1312
2021-05-12 01:32:21 GMT 39.299358 -94.829514 2,275 95 151 -1312
2021-05-12 01:32:20 GMT 39.299419 -94.830421 2,300 95 151 -1312
2021-05-12 01:32:19 GMT 39.299549 -94.832191 2,325 95 152 -1312
2021-05-12 01:32:17 GMT 39.299622 -94.833107 2,325 95 151 -1312
2021-05-12 01:32:16 GMT 39.299679 -94.833977 2,350 95 152 -1312
2021-05-12 01:32:15 GMT 39.299740 -94.834862 2,350 95 153 -1312
2021-05-12 01:32:13 GMT 39.299881 -94.836693 2,375 95 152 -1312
2021-05-12 01:32:12 GMT 39.299938 -94.837570 2,400 94 153 -1312
2021-05-12 01:32:11 GMT 39.299980 -94.838470 2,500 95 154 -1312
2021-05-12 01:32:09 GMT 39.300121 -94.840340 2,475 95 152 -96
2021-05-12 01:32:08 GMT 39.300159 -94.841248 2,475 96 151 -96
2021-05-12 01:32:07 GMT 39.300190 -94.842140 2,500 97 152 -96
2021-05-12 01:32:06 GMT 39.300282 -94.843040 2,525 97 152 -96
2021-05-12 01:32:05 GMT 39.300362 -94.844849 2,550 103 153 -96
2021-05-12 01:32:03 GMT 39.300430 -94.845787 2,550 106 151 -96
2021-05-12 01:32:02 GMT 39.300579 -94.846703 2,575 108 149 -96
2021-05-12 01:32:01 GMT 39.300900 -94.848412 2,575 114 153 -96
2021-05-12 01:31:59 GMT 39.301109 -94.849297 2,600 117 152 -96
2021-05-12 01:31:58 GMT 39.301338 -94.850121 2,600 121 157 -96
2021-05-12 01:31:56 GMT 39.301991 -94.851761 2,625 127 159 -96
2021-05-12 01:31:55 GMT 39.302410 -94.852631 2,625 130 153 -96
2021-05-12 01:31:54 GMT 39.302780 -94.853348 2,650 132 158 -96
2021-05-12 01:31:53 GMT 39.303230 -94.854134 2,650 135 156 -96
2021-05-12 01:31:52 GMT 39.303711 -94.854790 2,700 136 157 -96
2021-05-12 01:31:50 GMT 39.304741 -94.856133 2,700 136 157 -96
2021-05-12 01:31:49 GMT 39.305279 -94.856781 2,700 136 156 -96
2021-05-12 01:31:48 GMT 39.305779 -94.857422 2,700 137 158 -96
2021-05-12 01:31:47 GMT 39.306820 -94.858681 2,700 137 161 0
2021-05-12 01:31:45 GMT 39.307381 -94.859352 2,700 138 158 0
2021-05-12 01:31:44 GMT 39.307919 -94.859947 2,700 139 161 0
2021-05-12 01:31:43 GMT 39.308369 -94.860672 2,700 146 166 0
2021-05-12 01:31:39 GMT 39.310524 -94.863037 2,675 138 155 -64
2021-05-12 01:31:34 GMT 39.312881 -94.865509 2,675 142 157 0
2021-05-12 01:31:30 GMT 39.314804 -94.867241 2,675 147 158 64
2021-05-12 01:31:24 GMT 39.319603 -94.870483 2,650 158 161 128
2021-05-12 01:31:20 GMT 39.321278 -94.871338 2,650 161 162 64
2021-05-12 01:31:13 GMT 39.327255 -94.873390 2,650 166 170 -64
2021-05-12 01:31:10 GMT 39.328583 -94.873810 2,650 166 173 -64
2021-05-12 01:31:04 GMT 39.335587 -94.875900 2,675 166 179 -192
2021-05-12 01:31:00 GMT 39.336689 -94.876282 2,675 166 182 -128
2021-05-12 01:30:52 GMT 39.344601 -94.878723 2,675 166 184 0
2021-05-12 01:30:49 GMT 39.345795 -94.879066 2,675 166 184 64
2021-05-12 01:30:43 GMT 39.352707 -94.881210 2,675 166 183 0
2021-05-12 01:30:40 GMT 39.354034 -94.881630 2,675 166 184 -64
2021-05-12 01:30:37 GMT 39.357010 -94.882530 2,675 166 183 0
2021-05-12 01:30:32 GMT 39.360947 -94.883720 2,675 166 183 0
2021-05-12 01:30:29 GMT 39.362274 -94.884140 2,675 166 183 0
2021-05-12 01:30:26 GMT 39.366302 -94.885391 2,675 166 182 -704
2021-05-12 01:30:19 GMT 39.370483 -94.886658 2,725 166 183 -896
2021-05-12 01:30:11 GMT 39.378819 -94.889160 2,875 166 186 -832
2021-05-12 01:30:08 GMT 39.379795 -94.889465 2,900 166 187 -768
2021-05-12 01:30:01 GMT 39.387177 -94.891724 2,975 166 193 -448
2021-05-12 01:29:48 GMT 39.397392 -94.894653 3,000 169 205 -192
2021-05-12 01:29:40 GMT 39.406906 -94.895248 3,075 188 218 -896
2021-05-12 01:29:27 GMT 39.418259 -94.892380 3,275 193 223 -960
2021-05-12 01:29:18 GMT 39.428162 -94.889587 3,400 193 223 -768
2021-05-12 01:29:04 GMT 39.441708 -94.885864 3,525 193 227 -512
2021-05-12 01:28:59 GMT 39.449432 -94.883720 3,575 193 231 -448
2021-05-12 01:28:48 GMT 39.460190 -94.880737 3,650 193 235 -256
2021-05-12 01:28:38 GMT 39.471687 -94.877502 3,675 193 237 0
2021-05-12 01:28:26 GMT 39.483093 -94.874329 3,675 193 237 0
2021-05-12 01:28:16 GMT 39.494110 -94.871300 3,675 193 237 64
2021-05-12 01:28:06 GMT 39.505325 -94.868195 3,675 193 237 0
2021-05-12 01:27:55 GMT 39.516239 -94.865173 3,675 193 236 64
2021-05-12 01:27:46 GMT 39.527618 -94.861984 3,675 193 236 0
2021-05-12 01:27:35 GMT 39.538330 -94.859062 3,675 193 236 -64
2021-05-12 01:27:25 GMT 39.549500 -94.855896 3,675 193 236 0
2021-05-12 01:27:14 GMT 39.560623 -94.852791 3,675 193 236 0
2021-05-12 01:27:03 GMT 39.572113 -94.849625 3,675 193 235 -64
2021-05-12 01:26:54 GMT 39.582996 -94.846619 3,675 193 235 64
2021-05-12 01:26:43 GMT 39.593903 -94.843536 3,675 193 235 0
2021-05-12 01:26:32 GMT 39.604980 -94.840492 3,675 193 234 -64
2021-05-12 01:26:22 GMT 39.616058 -94.837387 3,675 193 235 0
2021-05-12 01:26:12 GMT 39.626942 -94.834351 3,675 193 236 0
2021-05-12 01:26:01 GMT 39.638020 -94.831238 3,675 193 236 0
2021-05-12 01:25:51 GMT 39.649193 -94.828186 3,675 193 237 64
2021-05-12 01:25:41 GMT 39.660366 -94.825073 3,675 193 237 0
2021-05-12 01:25:31 GMT 39.671219 -94.821983 3,650 193 236 0
2021-05-12 01:25:20 GMT 39.682709 -94.818787 3,675 193 236 -64
2021-05-12 01:25:09 GMT 39.693695 -94.815712 3,675 193 238 -64
2021-05-12 01:24:59 GMT 39.713058 -94.810219 3,675 193 245 -192
2021-05-12 01:24:43 GMT 39.723312 -94.807297 3,800 193 246 -1344
2021-05-12 01:24:32 GMT 39.736725 -94.803413 4,075 193 248 -1408
2021-05-12 01:24:21 GMT 39.747437 -94.800308 4,300 192 249 -1344
2021-05-12 01:24:11 GMT 39.759247 -94.797684 4,525 188 247 -1472
2021-05-12 01:24:01 GMT 39.770973 -94.796082 4,775 186 248 -1472
2021-05-12 01:23:50 GMT 39.782890 -94.794556 5,025 186 249 -1408
2021-05-12 01:23:40 GMT 39.794807 -94.793152 5,275 186 249 -1472
2021-05-12 01:23:30 GMT 39.807037 -94.791710 5,500 186 251 -1280
2021-05-12 01:23:18 GMT 39.819077 -94.790276 5,725 185 252 -1280
2021-05-12 01:23:09 GMT 39.831299 -94.788963 5,950 185 253 -1536
2021-05-12 01:23:06 GMT 39.832626 -94.788841 5,975 185 252 -1792
2021-05-12 01:23:03 GMT 39.835968 -94.788490 6,050 185 252 -1792
2021-05-12 01:22:58 GMT 39.843475 -94.787712 6,250 185 251 -2048
2021-05-12 01:22:47 GMT 39.855328 -94.786499 6,625 185 246 -2048
2021-05-12 01:22:42 GMT 39.861465 -94.785980 6,800 184 244 -1984
2021-05-12 01:22:38 GMT 39.866776 -94.785500 6,950 184 242 -1920
2021-05-12 01:22:30 GMT 39.874969 -94.784912 7,225 184 239 -1728
2021-05-12 01:22:27 GMT 39.878357 -94.784668 7,275 184 238 -1408
2021-05-12 01:22:20 GMT 39.885212 -94.784180 7,425 183 239 -1152
2021-05-12 01:22:16 GMT 39.889633 -94.783936 7,475 183 240 -1216
2021-05-12 01:22:12 GMT 39.894333 -94.783653 7,550 183 240 -1216
2021-05-12 01:22:09 GMT 39.902065 -94.783264 7,625 183 240 -1216
2021-05-12 01:22:06 GMT 39.902065 -94.783264 7,800 183 240 -1216
2021-05-12 01:22:01 GMT 39.908066 -94.782936 7,800 183 240 -1216
2021-05-12 01:21:53 GMT 39.915283 -94.782410 7,925 184 241 -1152
2021-05-12 01:21:49 GMT 39.920563 -94.782036 8,025 184 241 -1152
2021-05-12 01:21:45 GMT 39.924591 -94.781677 8,100 185 242 -1216
2021-05-12 01:21:40 GMT 39.929855 -94.781128 8,200 185 241 -1472
2021-05-12 01:21:39 GMT 39.931065 -94.780991 8,225 185 241 -1472
2021-05-12 01:21:37 GMT 39.933208 -94.780800 8,275 185 241 -1472
2021-05-12 01:21:36 GMT 39.934433 -94.780640 8,300 185 241 -1472
2021-05-12 01:21:35 GMT 39.935535 -94.780548 8,325 185 241 -1344
2021-05-12 01:21:33 GMT 39.944183 -94.779602 8,375 185 241 -1344
2021-05-12 01:21:28 GMT 39.955032 -94.778748 8,675 185 241 -1344
2021-05-12 01:21:18 GMT 39.955032 -94.778748 8,800 181 241 -1280
2021-05-12 01:21:13 GMT 39.960342 -94.778748 8,825 176 240 -1344
2021-05-12 01:21:06 GMT 39.967896 -94.779358 8,975 175 238 -1344
2021-05-12 01:21:03 GMT 39.971241 -94.779678 9,050 175 238 -1344
2021-05-12 01:21:00 GMT 39.974533 -94.780029 9,100 175 238 -1344
2021-05-12 01:20:59 GMT 39.975616 -94.780113 9,125 175 238 -1344
2021-05-12 01:20:58 GMT 39.977806 -94.780365 9,175 175 238 -1344
2021-05-12 01:20:54 GMT 39.982040 -94.780762 9,275 175 238 -1408
2021-05-12 01:20:47 GMT 39.989395 -94.781487 9,450 175 242 -640
2021-05-12 01:20:44 GMT 39.993401 -94.781921 9,450 175 242 -640
2021-05-12 01:20:36 GMT 40.001678 -94.782715 9,575 175 244 -512
2021-05-12 01:20:30 GMT 40.007996 -94.783325 9,575 175 250 -448
2021-05-12 01:20:27 GMT 40.011974 -94.783737 9,600 175 250 -448
2021-05-12 01:20:20 GMT 40.020584 -94.784546 9,650 175 257 -256
2021-05-12 01:20:17 GMT 40.024887 -94.784973 9,650 175 259 -192
2021-05-12 01:20:10 GMT 40.032455 -94.785728 9,650 175 270 -64
2021-05-12 01:20:06 GMT 40.036194 -94.786072 9,650 175 270 -64
2021-05-12 01:20:04 GMT 40.038929 -94.786293 9,650 175 272 0
2021-05-12 01:20:03 GMT 40.040222 -94.786438 9,650 175 273 64
2021-05-12 01:19:57 GMT 40.047867 -94.787170 9,650 175 277 0
2021-05-12 01:19:52 GMT 40.056011 -94.787918 9,675 175 290 0
2021-05-12 01:19:50 GMT 40.057343 -94.788086 9,675 175 290 0
2021-05-12 01:19:48 GMT 40.069839 -94.789230 9,675 175 291 -64
2021-05-12 01:19:42 GMT 40.069839 -94.789230 9,675 175 291 -64
2021-05-12 01:19:33 GMT 40.079708 -94.790161 9,675 175 291 -64
2021-05-12 01:19:32 GMT 40.082409 -94.790413 9,675 175 291 -64
2021-05-12 01:19:30 GMT 40.083897 -94.790535 9,675 175 291 -64
2021-05-12 01:19:24 GMT 40.092091 -94.791290 9,675 176 291 64
2021-05-12 01:19:21 GMT 40.098049 -94.791786 9,650 176 291 0
2021-05-12 01:19:11 GMT 40.110168 -94.792847 9,650 176 291 -64
2021-05-12 01:19:02 GMT 40.121651 -94.793785 9,650 176 291 0
2021-05-12 01:18:59 GMT 40.126328 -94.794189 9,650 176 291 64
2021-05-12 01:18:51 GMT 40.138687 -94.795532 9,675 173 290 -64
2021-05-12 01:18:43 GMT 40.149071 -94.797340 9,675 166 289 0
2021-05-12 01:18:38 GMT 40.154160 -94.798950 9,675 164 289 0
2021-05-12 01:18:30 GMT 40.165237 -94.805420 9,675 149 285 0
2021-05-12 01:18:27 GMT 40.167480 -94.807312 9,675 144 285 0
2021-05-12 01:18:22 GMT 40.172997 -94.813133 9,675 135 282 -64
2021-05-12 01:18:18 GMT 40.175766 -94.816833 9,675 121 279 64
2021-05-12 01:18:11 GMT 40.181705 -94.827492 9,675 119 278 64
2021-05-12 01:18:07 GMT 40.183685 -94.832581 9,675 114 277 -64
2021-05-12 01:18:01 GMT 40.186501 -94.843033 9,675 104 276 64
2021-05-12 01:17:58 GMT 40.187523 -94.849525 9,675 97 276 64
2021-05-12 01:17:51 GMT 40.188175 -94.860268 9,675 90 277 -64
2021-05-12 01:17:46 GMT 40.188126 -94.867981 9,675 88 276 -64
2021-05-12 01:17:41 GMT 40.187943 -94.877197 9,675 88 276 0
2021-05-12 01:17:40 GMT 40.187943 -94.877197 9,675 88 276 0
2021-05-12 01:17:39 GMT 40.187897 -94.878662 9,675 88 276 0
2021-05-12 01:17:38 GMT 40.187847 -94.880989 9,675 88 276 0
2021-05-12 01:17:37 GMT 40.187805 -94.882019 9,675 88 276 0
2021-05-12 01:17:35 GMT 40.187759 -94.885376 9,675 88 276 64
2021-05-12 01:17:34 GMT 40.187710 -94.887047 9,675 89 276 64
2021-05-12 01:17:32 GMT 40.187660 -94.891037 9,675 89 276 64
2021-05-12 01:17:30 GMT 40.187614 -94.894409 9,675 89 276 0
2021-05-12 01:17:29 GMT 40.187622 -94.896057 9,675 90 276 0
2021-05-12 01:17:28 GMT 40.187614 -94.897720 9,675 90 277 0
2021-05-12 01:17:27 GMT 40.187614 -94.899094 9,675 90 277 -64
2021-05-12 01:17:25 GMT 40.187668 -94.903442 9,675 91 277 0
2021-05-12 01:17:19 GMT 40.187847 -94.912453 9,675 91 277 0
2021-05-12 01:17:16 GMT 40.187897 -94.916443 9,675 91 277 64
2021-05-12 01:17:09 GMT 40.188171 -94.930847 9,650 91 276 64
2021-05-12 01:17:06 GMT 40.188263 -94.936096 9,650 91 276 64
2021-05-12 01:17:02 GMT 40.188354 -94.940186 9,650 91 276 -64
2021-05-12 01:17:00 GMT 40.188400 -94.944153 9,650 91 276 -64
2021-05-12 01:16:58 GMT 40.188446 -94.947510 9,650 91 276 -64
2021-05-12 01:16:55 GMT 40.188545 -94.952522 9,675 91 276 -128
2021-05-12 01:16:46 GMT 40.188812 -94.968872 9,675 91 275 0
2021-05-12 01:16:43 GMT 40.188873 -94.972687 9,675 91 275 64
2021-05-12 01:16:37 GMT 40.189011 -94.981926 9,675 91 275 0
2021-05-12 01:16:34 GMT 40.189152 -94.988602 9,675 91 274 64
2021-05-12 01:16:24 GMT 40.189384 -95.003273 9,675 91 281 -64
2021-05-12 01:16:21 GMT 40.189499 -95.008362 9,675 91 281 -64
2021-05-12 01:16:17 GMT 40.189636 -95.017273 9,675 91 288 64
2021-05-12 01:16:12 GMT 40.189850 -95.026741 9,675 91 291 0
2021-05-12 01:16:03 GMT 40.190128 -95.041161 9,675 91 306 -64
2021-05-12 01:15:56 GMT 40.190369 -95.055664 9,675 91 316 -64
2021-05-12 01:15:53 GMT 40.190460 -95.061218 9,675 91 322 -128
2021-05-12 01:15:42 GMT 40.190826 -95.081367 9,700 91 334 -448
2021-05-12 01:15:35 GMT 40.191101 -95.097290 9,825 91 338 -1536
2021-05-12 01:15:32 GMT 40.191147 -95.102295 9,900 91 338 -1856
2021-05-12 01:15:22 GMT 40.191605 -95.124390 10,325 91 340 -2816
2021-05-12 01:15:11 GMT 40.192039 -95.145226 10,775 91 342 -2688
2021-05-12 01:15:08 GMT 40.192108 -95.149109 10,875 91 343 -2560
2021-05-12 01:15:06 GMT 40.192200 -95.153076 10,950 91 343 -2560
2021-05-12 01:15:04 GMT 40.192318 -95.158646 11,050 91 343 -2624
2021-05-12 01:15:03 GMT 40.192364 -95.161079 11,125 91 344 -2688
2021-05-12 01:15:01 GMT 40.192429 -95.165527 11,200 91 345 -2752
2021-05-12 01:15:00 GMT 40.192474 -95.169678 11,300 91 345 -2752
2021-05-12 01:14:58 GMT 40.192505 -95.171753 11,350 91 345 -2688
2021-05-12 01:14:57 GMT 40.192551 -95.173500 11,375 91 346 -2688
2021-05-12 01:14:56 GMT 40.192566 -95.176575 11,450 91 346 -2688
2021-05-12 01:14:55 GMT 40.192596 -95.178619 11,500 91 346 -2688
2021-05-12 01:14:54 GMT 40.192657 -95.180725 11,550 91 347 -2752
2021-05-12 01:14:51 GMT 40.192749 -95.186584 11,675 91 347 -2816
2021-05-12 01:14:49 GMT 40.192795 -95.189941 11,750 91 347 -2880
2021-05-12 01:14:48 GMT 40.192829 -95.192726 11,775 91 348 -2944
2021-05-12 01:14:47 GMT 40.192841 -95.194946 11,850 91 348 -2944
2021-05-12 01:14:45 GMT 40.192924 -95.198715 11,950 91 348 -3008
2021-05-12 01:14:44 GMT 40.192978 -95.203369 12,050 91 348 -3008
2021-05-12 01:14:42 GMT 40.193016 -95.205460 12,100 91 348 -3008
2021-05-12 01:14:41 GMT 40.193069 -95.207397 12,150 91 348 -3072
2021-05-12 01:14:39 GMT 40.193157 -95.212074 12,275 91 348 -3136
2021-05-12 01:14:38 GMT 40.193161 -95.214294 12,325 91 348 -3136
2021-05-12 01:14:35 GMT 40.193295 -95.220627 12,475 91 348 -3200
2021-05-12 01:14:33 GMT 40.193340 -95.224808 12,575 91 348 -3200
2021-05-12 01:14:30 GMT 40.193481 -95.232361 12,900 91 349 -2816
2021-05-12 01:14:26 GMT 40.193573 -95.239319 12,925 91 349 -2816
2021-05-12 01:14:24 GMT 40.193665 -95.243774 13,025 91 349 -2816
2021-05-12 01:14:23 GMT 40.193668 -95.245850 13,075 91 349 -2816
2021-05-12 01:14:20 GMT 40.193756 -95.250305 13,175 91 349 -2880
2021-05-12 01:14:18 GMT 40.193848 -95.254700 13,275 91 349 -2880
2021-05-12 01:14:15 GMT 40.193939 -95.260620 13,400 91 349 -2944
2021-05-12 01:14:14 GMT 40.193947 -95.262764 13,450 91 349 -2944
2021-05-12 01:14:13 GMT 40.193993 -95.265884 13,525 90 349 -2944
2021-05-12 01:14:11 GMT 40.194088 -95.270195 13,575 90 349 -3008
2021-05-12 01:14:08 GMT 40.194168 -95.276550 13,775 90 350 -2816
2021-05-12 01:14:06 GMT 40.194180 -95.280426 13,875 90 350 -2880
2021-05-12 01:14:04 GMT 40.194225 -95.283798 13,950 90 350 -2880
2021-05-12 01:14:03 GMT 40.194305 -95.291870 14,100 90 351 -2752
2021-05-12 01:14:01 GMT 40.194305 -95.291870 14,100 90 351 -2688
2021-05-12 01:14:00 GMT 40.194351 -95.296326 14,200 90 352 -2432
2021-05-12 01:13:57 GMT 40.194397 -95.300659 14,300 90 352 -2368
2021-05-12 01:13:56 GMT 40.194443 -95.303040 14,325 90 353 -2240
2021-05-12 01:13:54 GMT 40.194443 -95.307312 14,400 90 354 -2240
2021-05-12 01:13:53 GMT 40.194508 -95.309578 14,450 90 354 -2240
2021-05-12 01:13:51 GMT 40.194553 -95.314575 14,600 90 357 -1984
2021-05-12 01:13:48 GMT 40.194599 -95.320694 14,625 90 357 -1984
2021-05-12 01:13:39 GMT 40.194832 -95.339981 14,925 90 367 -1344
2021-05-12 01:13:37 GMT 40.194878 -95.344414 14,975 90 367 -1344
2021-05-12 01:13:36 GMT 40.194901 -95.346497 14,975 90 372 -1280
2021-05-12 01:13:34 GMT 40.194946 -95.351135 15,025 90 374 -1216
2021-05-12 01:13:30 GMT 40.195038 -95.358337 15,100 91 381 -1728
2021-05-12 01:13:28 GMT 40.195156 -95.366325 15,225 90 386 -2752
2021-05-12 01:13:27 GMT 40.195221 -95.369690 15,300 90 387 -2944
2021-05-12 01:13:24 GMT 40.195251 -95.372063 15,350 90 388 -3136
2021-05-12 01:13:22 GMT 40.195251 -95.375748 15,450 90 390 -3328
2021-05-12 01:13:21 GMT 40.195312 -95.379150 15,525 90 394 -3648
2021-05-12 01:13:18 GMT 40.195404 -95.389587 15,800 90 394 -3712
2021-05-12 01:13:15 GMT 40.195438 -95.394852 15,950 90 395 -3840
2021-05-12 01:13:14 GMT 40.195450 -95.396118 15,975 90 396 -3968
2021-05-12 01:13:12 GMT 40.195484 -95.401405 16,125 90 397 -4096
2021-05-12 01:13:11 GMT 40.195530 -95.403465 16,175 90 398 -4096
2021-05-12 01:13:09 GMT 40.195587 -95.410706 16,400 90 399 -4160
2021-05-12 01:13:05 GMT 40.195667 -95.417946 16,600 90 401 -4096
2021-05-12 01:13:04 GMT 40.195679 -95.420349 16,675 90 401 -4096
2021-05-12 01:13:02 GMT 40.195724 -95.424011 16,750 90 402 -4160
2021-05-12 01:13:01 GMT 40.195717 -95.427368 16,850 90 403 -4160
2021-05-12 01:13:00 GMT 40.195763 -95.432487 17,000 90 404 -4096
2021-05-12 01:12:59 GMT 40.195763 -95.432487 17,000 90 404 -4160
2021-05-12 01:12:56 GMT 40.195862 -95.442505 17,200 90 406 -4672
2021-05-12 01:12:47 GMT 40.195995 -95.460640 18,000 90 406 -4992
2021-05-12 01:12:44 GMT 40.196045 -95.467957 18,125 90 406 -4992
2021-05-12 01:12:40 GMT 40.196182 -95.479980 18,550 90 406 -4800
2021-05-12 01:12:35 GMT 40.196320 -95.494690 19,000 90 407 -4544
2021-05-12 01:12:30 GMT 40.196415 -95.506836 19,350 90 409 -4224
2021-05-12 01:12:27 GMT 40.196461 -95.511703 19,475 90 410 -4096
2021-05-12 01:12:24 GMT 40.196503 -95.519409 19,700 90 411 -4032
2021-05-12 01:12:17 GMT 40.196686 -95.538452 20,200 90 416 -3840
2021-05-12 01:12:13 GMT 40.196739 -95.544853 20,350 90 419 -3904
2021-05-12 01:12:09 GMT 40.196880 -95.557022 20,650 90 421 -3840
2021-05-12 01:12:04 GMT 40.196972 -95.570694 21,000 90 425 -3712
2021-05-12 01:11:56 GMT 40.197159 -95.591354 21,450 90 432 -2816
2021-05-12 01:11:52 GMT 40.197205 -95.598595 21,600 90 434 -2496
2021-05-12 01:11:49 GMT 40.197250 -95.609329 21,750 90 438 -2240
2021-05-12 01:11:43 GMT 40.197372 -95.624756 21,950 90 443 -1920
2021-05-12 01:11:38 GMT 40.197437 -95.637047 22,100 90 448 -1600
2021-05-12 01:11:35 GMT 40.197487 -95.646782 22,175 90 452 -1280
2021-05-12 01:11:32 GMT 40.197556 -95.653931 22,225 90 455 -1216
2021-05-12 01:11:28 GMT 40.197624 -95.665512 22,300 90 461 -1408
2021-05-12 01:11:22 GMT 40.197739 -95.683716 22,525 90 468 -2752
2021-05-12 01:11:17 GMT 40.197830 -95.694214 22,725 90 471 -3328
2021-05-12 01:11:14 GMT 40.197968 -95.712463 23,050 90 476 -3776
2021-05-12 01:11:11 GMT 40.197968 -95.712463 23,125 90 476 -3712
2021-05-12 01:11:08 GMT 40.198059 -95.722839 23,325 90 479 -4032
2021-05-12 01:11:03 GMT 40.198135 -95.736176 23,750 90 481 -4736
2021-05-12 01:11:00 GMT 40.198196 -95.743591 23,850 90 481 -4800
2021-05-12 01:10:56 GMT 40.198277 -95.754898 24,200 90 481 -5184
2021-05-12 01:10:52 GMT 40.198368 -95.770134 24,975 90 480 -4800
2021-05-12 01:10:46 GMT 40.198471 -95.784607 25,075 90 480 -4928
2021-05-12 01:10:43 GMT 40.198509 -95.796661 25,400 90 481 -4736
2021-05-12 01:10:39 GMT 40.198563 -95.804321 25,600 90 481 -4608
2021-05-12 01:10:36 GMT 40.198654 -95.814819 25,875 90 481 -4416
2021-05-12 01:10:30 GMT 40.198746 -95.834595 26,350 90 483 -3904
2021-05-12 01:10:25 GMT 40.198788 -95.846909 26,600 90 485 -3648
2021-05-12 01:10:20 GMT 40.198833 -95.859894 27,050 90 489 -3328
2021-05-12 01:10:16 GMT 40.198929 -95.874130 27,125 90 491 -3328
2021-05-12 01:10:10 GMT 40.199020 -95.891296 27,425 90 494 -3264
2021-05-12 01:10:05 GMT 40.199066 -95.904480 27,675 90 496 -3584
2021-05-12 01:10:00 GMT 40.199207 -95.922256 28,050 90 497 -4160
2021-05-12 01:09:54 GMT 40.199253 -95.936676 28,400 90 497 -4224
2021-05-12 01:09:48 GMT 40.199394 -95.966576 28,900 90 496 -4544
2021-05-12 01:09:45 GMT 40.199394 -95.966576 29,125 90 496 -4672
2021-05-12 01:09:38 GMT 40.199478 -95.988831 29,725 90 493 -4800
2021-05-12 01:09:35 GMT 40.199532 -95.996536 29,925 90 492 -4672
2021-05-12 01:09:30 GMT 40.199570 -96.012512 30,350 90 490 -4544
2021-05-12 01:09:27 GMT 40.199615 -96.017273 30,575 90 489 -4416
2021-05-12 01:09:24 GMT 40.199661 -96.029053 30,750 90 488 -4352
2021-05-12 01:09:17 GMT 40.199753 -96.049072 31,350 90 486 -3968
2021-05-12 01:09:14 GMT 40.199753 -96.057312 31,425 90 486 -3904
2021-05-12 01:09:08 GMT 40.199860 -96.076622 31,825 90 486 -3392
2021-05-12 01:09:04 GMT 40.199905 -96.087234 32,050 90 486 -3456
2021-05-12 01:08:57 GMT 40.199982 -96.107544 32,425 90 487 -2944
2021-05-12 01:08:54 GMT 40.199982 -96.119568 32,625 90 487 -2432
2021-05-12 01:08:46 GMT 40.200027 -96.143311 33,000 90 494 -64
2021-05-12 01:08:42 GMT 40.200027 -96.150146 32,950 90 490 -1088
2021-05-12 01:08:36 GMT 40.200047 -96.168945 33,000 90 493 -192
2021-05-12 01:08:33 GMT 40.200092 -96.180618 33,000 90 494 -64
2021-05-12 01:08:26 GMT 40.200256 -96.201721 33,000 90 494 -64
2021-05-12 01:08:22 GMT 40.200348 -96.211182 33,000 90 494 -64
2021-05-12 01:08:15 GMT 40.200485 -96.231506 33,000 90 494 64
2021-05-12 01:08:12 GMT 40.200558 -96.240425 33,000 90 494 0
2021-05-12 01:08:04 GMT 40.200714 -96.263489 33,000 90 494 64
2021-05-12 01:08:01 GMT 40.200760 -96.272034 33,000 90 494 64
2021-05-12 01:07:56 GMT 40.200943 -96.289856 33,000 90 494 0
2021-05-12 01:07:52 GMT 40.201035 -96.301758 33,000 90 494 -128
2021-05-12 01:07:44 GMT 40.201218 -96.322144 33,000 90 494 -64
2021-05-12 01:07:41 GMT 40.201263 -96.332825 33,000 90 494 0
2021-05-12 01:07:34 GMT 40.201447 -96.355591 33,000 90 494 64
2021-05-12 01:07:31 GMT 40.201488 -96.363396 33,000 90 494 0
2021-05-12 01:07:24 GMT 40.201721 -96.395020 33,000 90 494 0
2021-05-12 01:07:21 GMT 40.201721 -96.395020 33,000 90 494 0
2021-05-12 01:07:13 GMT 40.201859 -96.417725 33,000 90 494 0
2021-05-12 01:07:10 GMT 40.201908 -96.425438 33,000 90 494 64
2021-05-12 01:07:02 GMT 40.202045 -96.449600 33,000 90 495 0
2021-05-12 01:06:59 GMT 40.202095 -96.456718 33,000 90 495 -64
2021-05-12 01:06:50 GMT 40.202278 -96.487923 33,000 90 495 0
2021-05-12 01:06:42 GMT 40.202419 -96.510773 33,000 90 495 64
2021-05-12 01:06:38 GMT 40.202454 -96.519714 33,000 90 495 64
2021-05-12 01:06:31 GMT 40.202606 -96.541733 33,000 90 495 64
2021-05-12 01:06:28 GMT 40.202637 -96.549683 33,000 90 495 64
2021-05-12 01:06:21 GMT 40.202774 -96.572632 33,000 90 495 -64
2021-05-12 01:06:18 GMT 40.202793 -96.579247 33,000 90 495 -128
2021-05-12 01:06:11 GMT 40.202885 -96.601723 33,000 90 495 64
2021-05-12 01:06:08 GMT 40.202911 -96.610657 33,000 90 495 64
2021-05-12 01:06:01 GMT 40.203049 -96.633667 33,000 90 494 0
2021-05-12 01:05:58 GMT 40.203049 -96.640808 33,000 90 494 0
2021-05-12 01:05:48 GMT 40.203213 -96.671074 33,000 90 494 64
2021-05-12 01:05:40 GMT 40.203323 -96.694580 33,000 90 494 -64
2021-05-12 01:05:37 GMT 40.203323 -96.701843 33,000 90 494 0
2021-05-12 01:05:30 GMT 40.203445 -96.725128 33,000 90 494 0
2021-05-12 01:05:27 GMT 40.203461 -96.732971 33,000 90 494 0
2021-05-12 01:05:19 GMT 40.203552 -96.756958 33,000 90 494 0
2021-05-12 01:05:16 GMT 40.203552 -96.764160 33,000 90 494 0
2021-05-12 01:05:09 GMT 40.203644 -96.788147 33,000 90 495 0
2021-05-12 01:05:06 GMT 40.203690 -96.794189 33,000 90 495 0
2021-05-12 01:04:56 GMT 40.203735 -96.825317 33,000 90 495 0
2021-05-12 01:04:46 GMT 40.203815 -96.854660 33,000 90 495 0
2021-05-12 01:04:35 GMT 40.203911 -96.886932 33,000 90 494 0
2021-05-12 01:04:26 GMT 40.203957 -96.916016 33,000 90 493 64
2021-05-12 01:04:15 GMT 40.204056 -96.946533 33,000 90 493 64
2021-05-12 01:04:05 GMT 40.204094 -96.977196 33,000 90 493 -64
2021-05-12 01:03:55 GMT 40.204147 -97.008911 33,000 90 492 0
2021-05-12 01:03:43 GMT 40.204189 -97.040428 33,000 90 492 0
2021-05-12 01:03:33 GMT 40.204193 -97.070801 33,000 90 491 0
2021-05-12 01:03:23 GMT 40.204193 -97.102051 33,000 90 491 64
2021-05-12 01:03:13 GMT 40.204193 -97.131714 33,000 90 490 0
2021-05-12 01:03:03 GMT 40.204235 -97.163460 33,000 90 489 0
2021-05-12 01:02:52 GMT 40.204239 -97.193909 33,000 90 489 0
2021-05-12 01:02:42 GMT 40.204239 -97.224731 33,000 89 488 64
2021-05-12 01:02:31 GMT 40.204193 -97.255493 33,000 89 487 -64
2021-05-12 01:02:23 GMT 40.204147 -97.280396 33,000 89 487 64
2021-05-12 01:02:20 GMT 40.204147 -97.286316 33,000 89 487 64
2021-05-12 01:02:10 GMT 40.204094 -97.316330 33,000 89 487 0
2021-05-12 01:02:02 GMT 40.204056 -97.340454 33,000 89 487 0
2021-05-12 01:01:59 GMT 40.204048 -97.347794 33,000 89 487 0
2021-05-12 01:01:50 GMT 40.204002 -97.377319 33,000 89 486 64
2021-05-12 01:01:42 GMT 40.203964 -97.400330 33,000 89 485 64
2021-05-12 01:01:38 GMT 40.203957 -97.409157 33,000 89 485 0
2021-05-12 01:01:33 GMT 40.203911 -97.427879 33,000 89 485 -64
2021-05-12 01:01:29 GMT 40.203873 -97.440247 33,000 89 485 -64
2021-05-12 01:01:20 GMT 40.203827 -97.467407 33,000 89 485 0
2021-05-12 01:01:17 GMT 40.203827 -97.470825 33,000 89 485 64
2021-05-12 01:01:11 GMT 40.203781 -97.493408 33,000 89 485 64
2021-05-12 01:01:08 GMT 40.203724 -97.500854 33,000 89 485 -64
2021-05-12 01:01:01 GMT 40.203674 -97.520950 33,000 89 486 0
2021-05-12 01:00:57 GMT 40.203644 -97.531006 33,000 89 486 -64
2021-05-12 01:00:50 GMT 40.203552 -97.550964 33,000 89 486 0
2021-05-12 01:00:47 GMT 40.203552 -97.561707 33,000 89 486 0
2021-05-12 01:00:40 GMT 40.203445 -97.583504 33,000 89 484 0
2021-05-12 01:00:36 GMT 40.203415 -97.592346 33,000 89 484 0
2021-05-12 01:00:29 GMT 40.203350 -97.611656 33,000 89 484 0
2021-05-12 01:00:25 GMT 40.203323 -97.622742 33,000 89 483 64
2021-05-12 01:00:19 GMT 40.203232 -97.644836 33,000 89 484 0
2021-05-12 01:00:16 GMT 40.203186 -97.652893 33,000 89 484 -64
2021-05-12 01:00:09 GMT 40.203072 -97.684067 33,000 89 484 64
2021-05-12 01:00:04 GMT 40.203072 -97.684067 33,000 89 485 0
2021-05-12 00:59:59 GMT 40.203026 -97.700417 33,000 89 486 0
2021-05-12 00:59:55 GMT 40.202957 -97.713745 33,000 89 486 0
2021-05-12 00:59:48 GMT 40.202866 -97.731567 33,000 89 487 64
2021-05-12 00:59:44 GMT 40.202744 -97.745110 33,000 89 488 -64
2021-05-12 00:59:37 GMT 40.202637 -97.769348 33,000 89 489 0
2021-05-12 00:59:33 GMT 40.202591 -97.775391 33,000 89 489 0
2021-05-12 00:59:28 GMT 40.202499 -97.790894 33,000 89 490 64
2021-05-12 00:59:23 GMT 40.202419 -97.806664 33,000 89 491 64
2021-05-12 00:59:17 GMT 40.202316 -97.824158 33,000 89 491 -64
2021-05-12 00:59:12 GMT 40.202232 -97.837685 33,000 89 492 -64
2021-05-12 00:59:06 GMT 40.202133 -97.857422 33,000 89 492 0
2021-05-12 00:59:03 GMT 40.202045 -97.867462 33,000 89 493 64
2021-05-12 00:58:58 GMT 40.201950 -97.883728 33,000 89 493 -64
2021-05-12 00:58:52 GMT 40.201859 -97.899109 33,000 89 493 64
2021-05-12 00:58:47 GMT 40.201767 -97.913025 33,000 89 493 128
2021-05-12 00:58:42 GMT 40.201675 -97.929756 33,000 89 492 -128
2021-05-12 00:58:37 GMT 40.201584 -97.943420 33,000 89 492 -64
2021-05-12 00:58:31 GMT 40.201447 -97.961182 33,000 89 491 64
2021-05-12 00:58:25 GMT 40.201347 -97.977386 33,000 89 490 64
2021-05-12 00:58:20 GMT 40.201218 -97.992249 33,000 89 489 64
2021-05-12 00:58:17 GMT 40.201172 -98.004028 33,000 89 488 0
2021-05-12 00:58:11 GMT 40.201035 -98.022888 33,000 89 487 64
2021-05-12 00:58:06 GMT 40.200932 -98.035248 33,000 89 485 -64
2021-05-12 00:57:59 GMT 40.200760 -98.053467 33,000 89 485 0
2021-05-12 00:57:56 GMT 40.200714 -98.063965 33,000 89 485 64
2021-05-12 00:57:50 GMT 40.200577 -98.084167 33,000 89 484 0
2021-05-12 00:57:42 GMT 40.200417 -98.103355 33,000 89 485 -64
2021-05-12 00:57:39 GMT 40.200302 -98.113525 33,000 89 485 0
2021-05-12 00:57:36 GMT 40.200211 -98.124084 33,000 89 485 64
2021-05-12 00:57:28 GMT 40.200092 -98.143425 33,000 89 485 0
2021-05-12 00:57:25 GMT 40.199982 -98.154480 33,000 89 485 -64
2021-05-12 00:57:18 GMT 40.199814 -98.174950 33,000 89 485 0
2021-05-12 00:57:15 GMT 40.199753 -98.183777 33,000 89 485 0
2021-05-12 00:57:08 GMT 40.199532 -98.204727 33,000 89 485 64
2021-05-12 00:57:05 GMT 40.199478 -98.213562 33,000 89 485 64
2021-05-12 00:56:58 GMT 40.199253 -98.235313 33,000 89 484 0
2021-05-12 00:56:54 GMT 40.199158 -98.246155 33,000 89 484 -64
2021-05-12 00:56:47 GMT 40.198975 -98.267639 33,000 89 484 64
2021-05-12 00:56:43 GMT 40.198883 -98.275879 33,000 89 484 64
2021-05-12 00:56:36 GMT 40.198650 -98.297302 33,000 89 483 0
2021-05-12 00:56:32 GMT 40.198463 -98.317215 33,000 89 483 0
2021-05-12 00:56:26 GMT 40.198334 -98.327332 33,000 89 483 0
2021-05-12 00:56:23 GMT 40.198277 -98.334816 33,000 89 483 0
2021-05-12 00:56:18 GMT 40.198151 -98.349304 33,000 89 483 0
2021-05-12 00:56:14 GMT 40.198013 -98.363525 33,000 89 482 -64
2021-05-12 00:56:05 GMT 40.197765 -98.386314 33,000 89 482 64
2021-05-12 00:56:02 GMT 40.197647 -98.395020 33,000 89 482 64
2021-05-12 00:55:53 GMT 40.197372 -98.423096 33,000 89 482 0
2021-05-12 00:55:44 GMT 40.197067 -98.449425 33,000 89 483 0
2021-05-12 00:55:41 GMT 40.196972 -98.460159 33,000 89 483 0
2021-05-12 00:55:33 GMT 40.196693 -98.483505 33,000 89 483 -64
2021-05-12 00:55:24 GMT 40.196415 -98.509346 33,000 89 483 0
2021-05-12 00:55:20 GMT 40.196274 -98.522209 33,000 89 483 0
2021-05-12 00:55:14 GMT 40.196087 -98.537560 33,000 89 483 -64
2021-05-12 00:55:10 GMT 40.195950 -98.548050 33,000 89 483 0
2021-05-12 00:55:03 GMT 40.195679 -98.570862 33,000 89 484 -64
2021-05-12 00:55:00 GMT 40.195530 -98.579636 33,000 89 484 0
2021-05-12 00:54:52 GMT 40.195267 -98.601257 33,000 89 483 0
2021-05-12 00:54:49 GMT 40.195175 -98.608215 33,000 89 483 64
2021-05-12 00:54:41 GMT 40.194901 -98.632690 33,000 89 483 -64
2021-05-12 00:54:35 GMT 40.194645 -98.653481 33,000 89 482 -64
2021-05-12 00:54:31 GMT 40.194534 -98.662231 33,000 88 482 64
2021-05-12 00:54:26 GMT 40.194260 -98.679688 33,000 88 482 64
2021-05-12 00:54:20 GMT 40.194122 -98.692383 33,000 88 481 -64
2021-05-12 00:54:17 GMT 40.193939 -98.704163 33,000 88 481 0
2021-05-12 00:54:10 GMT 40.193710 -98.721680 33,000 89 481 64
2021-05-12 00:54:05 GMT 40.193527 -98.735939 33,000 88 481 0
2021-05-12 00:54:00 GMT 40.193295 -98.752419 33,000 88 481 0
2021-05-12 00:53:55 GMT 40.193069 -98.770752 33,000 88 481 64
2021-05-12 00:53:50 GMT 40.192932 -98.781067 33,000 88 481 64
2021-05-12 00:53:39 GMT 40.192474 -98.811523 33,000 88 480 64
2021-05-12 00:53:35 GMT 40.192245 -98.826416 33,000 88 480 64
2021-05-12 00:53:28 GMT 40.191994 -98.843498 33,000 88 480 -64
2021-05-12 00:53:23 GMT 40.191807 -98.857605 33,000 88 480 64
2021-05-12 00:53:19 GMT 40.191559 -98.873169 33,000 88 479 64
2021-05-12 00:53:12 GMT 40.191284 -98.894165 33,000 88 479 -64
2021-05-12 00:53:07 GMT 40.191154 -98.904045 33,000 88 478 0
2021-05-12 00:53:01 GMT 40.190876 -98.922333 33,000 88 478 64
2021-05-12 00:52:58 GMT 40.190689 -98.933533 33,000 88 478 0
2021-05-12 00:52:51 GMT 40.190414 -98.950806 33,000 88 478 -64
2021-05-12 00:52:47 GMT 40.190231 -98.962341 33,000 88 478 -64
2021-05-12 00:52:41 GMT 40.189911 -98.984009 33,000 88 479 -64
2021-05-12 00:52:36 GMT 40.189758 -98.994118 33,000 88 479 -64
2021-05-12 00:52:27 GMT 40.189270 -99.022400 33,000 88 480 64
2021-05-12 00:52:20 GMT 40.188965 -99.043121 33,000 88 481 -64
2021-05-12 00:52:15 GMT 40.188782 -99.054733 33,000 88 481 64
2021-05-12 00:52:09 GMT 40.188454 -99.074516 33,000 88 481 64
2021-05-12 00:52:06 GMT 40.188309 -99.083313 33,000 88 481 0
2021-05-12 00:51:56 GMT 40.187851 -99.108826 33,000 88 481 64
2021-05-12 00:51:53 GMT 40.187714 -99.118408 33,000 88 481 64
2021-05-12 00:51:44 GMT 40.187302 -99.143066 33,000 88 481 -64
2021-05-12 00:51:34 GMT 40.186729 -99.173958 33,000 88 481 0
2021-05-12 00:51:26 GMT 40.186340 -99.198730 33,000 88 480 0
2021-05-12 00:51:23 GMT 40.186218 -99.204109 33,000 88 480 0
2021-05-12 00:51:17 GMT 40.185894 -99.222649 33,000 88 480 64
2021-05-12 00:51:14 GMT 40.185699 -99.235046 33,000 88 480 64
2021-05-12 00:51:05 GMT 40.185287 -99.257729 33,000 88 481 -64
2021-05-12 00:51:02 GMT 40.185104 -99.266418 33,000 88 481 -64
2021-05-12 00:50:56 GMT 40.184784 -99.283813 33,000 88 481 64
2021-05-12 00:50:53 GMT 40.184555 -99.295410 33,000 88 481 64
2021-05-12 00:50:45 GMT 40.184124 -99.316910 33,000 88 481 -64
2021-05-12 00:50:41 GMT 40.183960 -99.325562 33,000 88 480 -64
2021-05-12 00:50:34 GMT 40.183594 -99.346497 33,000 88 480 64
2021-05-12 00:50:31 GMT 40.183411 -99.355774 33,000 88 480 64
2021-05-12 00:50:24 GMT 40.183056 -99.376083 33,000 88 479 64
2021-05-12 00:50:21 GMT 40.182819 -99.387695 33,000 88 479 64
2021-05-12 00:50:13 GMT 40.182449 -99.407417 33,000 88 480 -64
2021-05-12 00:50:10 GMT 40.182266 -99.416077 33,000 88 480 -128
2021-05-12 00:50:04 GMT 40.181900 -99.435852 33,000 88 480 -64
2021-05-12 00:50:01 GMT 40.181717 -99.445068 33,000 88 480 0
2021-05-12 00:49:54 GMT 40.181286 -99.465408 33,000 88 480 64
2021-05-12 00:49:50 GMT 40.181122 -99.475342 33,000 88 480 64
2021-05-12 00:49:43 GMT 40.180679 -99.495811 33,000 88 480 64
2021-05-12 00:49:39 GMT 40.180435 -99.507996 33,000 88 481 64
2021-05-12 00:49:32 GMT 40.179977 -99.528931 33,000 88 481 -128
2021-05-12 00:49:29 GMT 40.179844 -99.536507 33,000 88 481 -64
2021-05-12 00:49:23 GMT 40.179474 -99.554443 33,000 88 480 64
2021-05-12 00:49:18 GMT 40.179245 -99.566040 33,000 88 480 64
2021-05-12 00:49:13 GMT 40.178864 -99.584076 33,000 88 480 64
2021-05-12 00:49:09 GMT 40.178631 -99.596558 33,000 88 480 0
2021-05-12 00:49:01 GMT 40.178211 -99.616592 33,000 88 480 -64
2021-05-12 00:48:58 GMT 40.178024 -99.626892 33,000 88 480 0
2021-05-12 00:48:52 GMT 40.177643 -99.644043 33,000 88 480 0
2021-05-12 00:48:47 GMT 40.177277 -99.660095 33,000 88 480 64
2021-05-12 00:48:42 GMT 40.177002 -99.673584 33,000 88 480 64
2021-05-12 00:48:37 GMT 40.176678 -99.687447 33,000 88 479 0
2021-05-12 00:48:32 GMT 40.176361 -99.703064 33,000 88 479 0
2021-05-12 00:48:26 GMT 40.176041 -99.717041 33,000 88 479 64
2021-05-12 00:48:21 GMT 40.175629 -99.735229 33,000 88 479 0
2021-05-12 00:48:16 GMT 40.175308 -99.748413 33,000 88 479 -64
2021-05-12 00:48:09 GMT 40.174896 -99.767090 33,000 88 478 0
2021-05-12 00:48:06 GMT 40.174667 -99.778625 33,000 88 478 0
2021-05-12 00:47:59 GMT 40.174255 -99.795433 33,000 88 478 64
2021-05-12 00:47:54 GMT 40.173931 -99.810417 33,000 88 478 64
2021-05-12 00:47:50 GMT 40.173569 -99.824890 33,000 88 478 -64
2021-05-12 00:47:44 GMT 40.173229 -99.840508 33,000 88 478 0
2021-05-12 00:47:39 GMT 40.172928 -99.853760 33,000 88 477 64
2021-05-12 00:47:34 GMT 40.172516 -99.872070 33,000 88 477 64
2021-05-12 00:47:26 GMT 40.171974 -99.894936 33,000 88 477 0
2021-05-12 00:47:23 GMT 40.171883 -99.899559 33,000 88 477 0
2021-05-12 00:47:17 GMT 40.171463 -99.916847 33,000 88 477 0
2021-05-12 00:47:13 GMT 40.171089 -99.930641 33,000 88 477 0
2021-05-12 00:47:08 GMT 40.170715 -99.945564 33,000 88 477 64
2021-05-12 00:47:02 GMT 40.170391 -99.960541 33,000 88 477 -64
2021-05-12 00:46:57 GMT 40.170044 -99.973877 33,000 88 476 0
2021-05-12 00:46:52 GMT 40.169678 -99.989807 33,000 88 476 0
2021-05-12 00:46:48 GMT 40.169403 -100.001526 33,000 88 475 64
2021-05-12 00:46:42 GMT 40.168991 -100.017395 33,000 88 475 64
2021-05-12 00:46:37 GMT 40.168671 -100.031372 33,000 88 474 0
2021-05-12 00:46:32 GMT 40.168213 -100.049866 33,000 88 474 -64
2021-05-12 00:46:28 GMT 40.167973 -100.060730 33,000 88 474 -64
2021-05-12 00:46:20 GMT 40.167389 -100.083008 33,000 88 474 64
2021-05-12 00:46:17 GMT 40.167225 -100.089256 33,000 88 474 -64
2021-05-12 00:46:11 GMT 40.166805 -100.106613 33,000 88 474 0
2021-05-12 00:46:06 GMT 40.166382 -100.121887 33,000 88 474 -64
2021-05-12 00:46:01 GMT 40.166016 -100.136139 33,000 88 474 -64
2021-05-12 00:45:50 GMT 40.165237 -100.166382 33,000 88 473 64
2021-05-12 00:45:38 GMT 40.164276 -100.204346 33,000 87 474 64
2021-05-12 00:45:30 GMT 40.163635 -100.225891 33,000 87 474 -128
2021-05-12 00:45:16 GMT 40.162571 -100.265602 33,000 88 474 0
2021-05-12 00:45:08 GMT 40.162033 -100.285706 33,000 87 473 64
2021-05-12 00:45:06 GMT 40.161827 -100.294380 33,000 88 473 -64
2021-05-12 00:44:55 GMT 40.161072 -100.323364 33,000 88 472 0
2021-05-12 00:44:47 GMT 40.160385 -100.347534 33,000 87 472 -64
2021-05-12 00:44:43 GMT 40.160110 -100.357788 33,000 87 472 -64
2021-05-12 00:44:37 GMT 40.159546 -100.377708 33,000 87 472 -64
2021-05-12 00:44:34 GMT 40.159405 -100.382271 33,000 87 472 -64
2021-05-12 00:44:25 GMT 40.158646 -100.409973 33,000 87 471 64
2021-05-12 00:44:16 GMT 40.157822 -100.438011 33,000 87 470 0
2021-05-12 00:44:04 GMT 40.157032 -100.467537 33,000 87 470 -64
2021-05-12 00:43:54 GMT 40.156082 -100.498718 33,000 87 469 0
2021-05-12 00:43:40 GMT 40.154938 -100.537888 33,000 87 468 -64
2021-05-12 00:43:33 GMT 40.154297 -100.559937 33,000 87 467 0
2021-05-12 00:43:22 GMT 40.153381 -100.591492 33,000 87 467 0
2021-05-12 00:43:10 GMT 40.152515 -100.621529 33,000 87 467 -64
2021-05-12 00:42:59 GMT 40.151505 -100.655212 33,000 87 467 64
2021-05-12 00:42:48 GMT 40.150700 -100.681458 33,000 87 467 64
2021-05-12 00:42:40 GMT 40.149815 -100.709923 33,000 87 467 0
2021-05-12 00:42:30 GMT 40.149071 -100.734764 33,000 87 467 -64
2021-05-12 00:42:20 GMT 40.148140 -100.765106 33,000 87 467 64
2021-05-12 00:42:08 GMT 40.147156 -100.795837 33,000 87 466 64
2021-05-12 00:41:57 GMT 40.145996 -100.831772 33,000 87 465 64
2021-05-12 00:41:46 GMT 40.145206 -100.857430 33,000 87 464 -64
2021-05-12 00:41:35 GMT 40.144135 -100.891449 33,000 87 464 64
2021-05-12 00:41:25 GMT 40.143356 -100.915710 33,000 87 464 -64
2021-05-12 00:41:08 GMT 40.141708 -100.966248 33,000 87 465 -64
2021-05-12 00:41:03 GMT 40.141342 -100.977417 33,000 87 465 64
2021-05-12 00:40:54 GMT 40.140411 -101.004677 33,000 87 465 0
2021-05-12 00:40:42 GMT 40.139328 -101.037903 33,000 87 465 -64
2021-05-12 00:40:33 GMT 40.138504 -101.061981 33,000 87 464 0
2021-05-12 00:40:19 GMT 40.137108 -101.103996 33,000 87 464 -64
2021-05-12 00:40:12 GMT 40.136581 -101.120239 33,000 87 465 -64
2021-05-12 00:40:02 GMT 40.135529 -101.150574 33,000 87 467 64
2021-05-12 00:39:51 GMT 40.134499 -101.180588 33,000 87 468 64
2021-05-12 00:39:41 GMT 40.133430 -101.210052 33,000 87 468 -64
2021-05-12 00:39:28 GMT 40.132233 -101.243408 33,000 87 468 0
2021-05-12 00:39:20 GMT 40.131332 -101.268852 33,000 87 468 0
2021-05-12 00:39:06 GMT 40.130035 -101.306396 33,000 87 468 0
2021-05-12 00:38:59 GMT 40.129211 -101.329407 33,000 87 468 -64
2021-05-12 00:38:50 GMT 40.128296 -101.354248 33,000 87 467 0
2021-05-12 00:38:46 GMT 40.127975 -101.363464 33,000 87 467 0
2021-05-12 00:38:38 GMT 40.127052 -101.388702 33,000 87 467 64
2021-05-12 00:38:28 GMT 40.126076 -101.414604 33,000 87 467 -64
2021-05-12 00:38:25 GMT 40.125793 -101.422661 33,000 87 467 -64
2021-05-12 00:38:15 GMT 40.124588 -101.454773 33,000 87 467 0
2021-05-12 00:38:06 GMT 40.123795 -101.476845 33,000 87 468 -64
2021-05-12 00:37:54 GMT 40.122490 -101.511864 33,000 87 468 -64
2021-05-12 00:37:46 GMT 40.121605 -101.534645 33,000 87 469 64
2021-05-12 00:37:40 GMT 40.121140 -101.547379 33,000 87 470 0
2021-05-12 00:37:34 GMT 40.120422 -101.566162 33,000 87 470 64
2021-05-12 00:37:30 GMT 40.119965 -101.577515 33,000 87 470 64
2021-05-12 00:37:21 GMT 40.118999 -101.603249 33,000 87 470 0
2021-05-12 00:37:07 GMT 40.116989 -101.654846 33,000 87 473 0
2021-05-12 00:37:00 GMT 40.116669 -101.662903 33,000 87 474 0
2021-05-12 00:36:51 GMT 40.115524 -101.692627 33,000 87 481 -64
2021-05-12 00:36:42 GMT 40.114563 -101.716980 33,000 87 482 64
2021-05-12 00:36:30 GMT 40.113224 -101.750504 32,900 87 480 1088
2021-05-12 00:36:18 GMT 40.111923 -101.783272 32,700 87 479 1216
2021-05-12 00:36:10 GMT 40.110851 -101.809868 32,425 87 479 1280
2021-05-12 00:35:58 GMT 40.109547 -101.842010 32,275 87 480 1664
2021-05-12 00:35:49 GMT 40.108383 -101.870605 31,900 87 482 1728
2021-05-12 00:35:37 GMT 40.107079 -101.902626 31,700 86 484 1600
2021-05-12 00:35:26 GMT 40.105728 -101.936035 31,425 86 485 1280
2021-05-12 00:35:16 GMT 40.104473 -101.965981 31,175 86 484 960
2021-05-12 00:35:05 GMT 40.103123 -101.998817 31,050 86 483 320
2021-05-12 00:34:54 GMT 40.101913 -102.027969 31,000 86 482 64
2021-05-12 00:34:43 GMT 40.100517 -102.060555 31,000 86 482 64
2021-05-12 00:34:32 GMT 40.099167 -102.091827 31,000 86 481 0
2021-05-12 00:34:23 GMT 40.098003 -102.119728 31,000 86 482 -64
2021-05-12 00:34:20 GMT 40.097626 -102.128479 31,000 86 482 0
2021-05-12 00:34:11 GMT 40.096573 -102.152832 31,000 86 482 0
2021-05-12 00:34:01 GMT 40.095245 -102.182983 31,000 86 482 64
2021-05-12 00:33:49 GMT 40.093861 -102.215172 31,000 86 482 -64
2021-05-12 00:33:41 GMT 40.092510 -102.245323 31,000 86 480 192
2021-05-12 00:33:27 GMT 40.091019 -102.278969 30,850 86 476 960
2021-05-12 00:33:18 GMT 40.089798 -102.307068 30,700 86 474 896
2021-05-12 00:33:06 GMT 40.088425 -102.337830 30,550 86 472 960
2021-05-12 00:32:56 GMT 40.086960 -102.369324 30,400 86 470 896
2021-05-12 00:32:44 GMT 40.085587 -102.400085 30,225 86 467 1088
2021-05-12 00:32:34 GMT 40.084129 -102.432152 30,000 86 465 1344
2021-05-12 00:32:24 GMT 40.082829 -102.461365 29,750 86 465 1408
2021-05-12 00:32:15 GMT 40.081741 -102.484558 29,550 86 465 1472
2021-05-12 00:32:12 GMT 40.081467 -102.491089 29,500 86 465 1472
2021-05-12 00:32:02 GMT 40.080093 -102.520386 29,250 86 465 1408
2021-05-12 00:31:49 GMT 40.077759 -102.570862 28,475 86 459 640
2021-05-12 00:31:41 GMT 40.077381 -102.579224 28,825 86 463 1024
2021-05-12 00:31:34 GMT 40.076309 -102.601440 28,725 86 459 640
2021-05-12 00:31:22 GMT 40.074875 -102.631836 28,600 86 455 768
2021-05-12 00:31:15 GMT 40.073822 -102.653748 28,500 86 452 704
2021-05-12 00:31:12 GMT 40.073517 -102.660622 28,475 86 451 704
2021-05-12 00:31:05 GMT 40.072723 -102.676575 28,350 86 451 704
2021-05-12 00:31:00 GMT 40.072128 -102.689575 28,300 86 443 768
2021-05-12 00:30:55 GMT 40.071377 -102.705254 28,300 86 443 768
2021-05-12 00:30:48 GMT 40.070480 -102.723816 28,200 86 443 768
2021-05-12 00:30:43 GMT 40.069839 -102.737274 28,150 86 441 1024
2021-05-12 00:30:40 GMT 40.069427 -102.745300 28,100 86 440 1088
2021-05-12 00:30:27 GMT 40.067825 -102.778320 27,900 86 436 896
2021-05-12 00:30:19 GMT 40.066772 -102.800354 27,775 86 432 704
2021-05-12 00:30:10 GMT 40.065536 -102.825317 27,675 86 429 576
2021-05-12 00:30:04 GMT 40.064953 -102.836960 27,625 86 427 512
2021-05-12 00:29:58 GMT 40.064163 -102.852966 27,575 86 423 576
2021-05-12 00:29:55 GMT 40.063705 -102.862122 27,550 86 423 576
2021-05-12 00:29:45 GMT 40.062378 -102.889648 27,450 86 417 768
2021-05-12 00:29:36 GMT 40.061371 -102.909729 27,325 86 414 1024
2021-05-12 00:29:28 GMT 40.060390 -102.929970 27,175 86 412 1152
2021-05-12 00:29:23 GMT 40.059784 -102.941772 27,100 86 410 1280
2021-05-12 00:29:15 GMT 40.058666 -102.964050 26,900 86 409 1472
2021-05-12 00:29:03 GMT 40.057297 -102.991150 26,600 86 409 1664
2021-05-12 00:28:56 GMT 40.056290 -103.010925 26,375 86 409 1472
2021-05-12 00:28:53 GMT 40.056107 -103.014305 26,375 86 409 1472
2021-05-12 00:28:42 GMT 40.054756 -103.041397 26,100 86 408 1344
2021-05-12 00:28:33 GMT 40.053497 -103.065430 25,900 86 406 1216
2021-05-12 00:28:23 GMT 40.052101 -103.092331 25,675 86 404 1152
2021-05-12 00:28:12 GMT 40.050892 -103.116615 25,500 86 402 1088
2021-05-12 00:28:02 GMT 40.049587 -103.141586 25,325 86 399 1280
2021-05-12 00:27:51 GMT 40.048286 -103.167053 25,025 86 399 2176
2021-05-12 00:27:42 GMT 40.046997 -103.190857 23,975 86 404 3072
2021-05-12 00:27:39 GMT 40.046562 -103.199196 23,975 86 404 3072
2021-05-12 00:27:34 GMT 40.046097 -103.208061 24,200 86 409 2816
2021-05-12 00:27:31 GMT 40.045715 -103.215332 24,075 86 411 2176
2021-05-12 00:27:28 GMT 40.045212 -103.225464 23,975 86 412 1344
2021-05-12 00:27:24 GMT 40.044655 -103.235840 23,875 86 411 1088
2021-05-12 00:27:19 GMT 40.044144 -103.245766 23,825 86 411 1088
2021-05-12 00:27:12 GMT 40.043350 -103.260811 23,700 85 410 1216
2021-05-12 00:27:08 GMT 40.042694 -103.273193 23,600 85 410 1216
2021-05-12 00:27:03 GMT 40.042145 -103.282959 23,525 86 409 1280
2021-05-12 00:26:59 GMT 40.041458 -103.295837 23,425 86 408 1216
2021-05-12 00:26:54 GMT 40.040791 -103.309128 23,300 86 407 1216
2021-05-12 00:26:50 GMT 40.040268 -103.318420 23,200 86 406 1216
2021-05-12 00:26:47 GMT 40.039993 -103.324341 23,175 86 406 1280
2021-05-12 00:26:39 GMT 40.038986 -103.342896 22,925 86 404 1216
2021-05-12 00:26:35 GMT 40.038368 -103.354942 22,925 86 404 1216
2021-05-12 00:26:29 GMT 40.037533 -103.370552 22,800 85 403 1152
2021-05-12 00:26:26 GMT 40.037159 -103.377228 22,750 85 403 1152
2021-05-12 00:26:20 GMT 40.036461 -103.390083 22,650 86 401 1152
2021-05-12 00:26:16 GMT 40.035854 -103.400696 22,575 85 400 1152
2021-05-12 00:26:12 GMT 40.035389 -103.409378 22,500 85 399 1088
2021-05-12 00:26:08 GMT 40.034832 -103.419800 22,425 85 398 1088
2021-05-12 00:26:02 GMT 40.034134 -103.432220 22,325 85 397 1152
2021-05-12 00:25:57 GMT 40.033447 -103.445129 22,225 85 396 1280
2021-05-12 00:25:51 GMT 40.032715 -103.458618 22,100 85 395 1408
2021-05-12 00:25:46 GMT 40.032120 -103.469360 22,000 85 394 1344
2021-05-12 00:25:41 GMT 40.031342 -103.483154 21,875 85 394 1344
2021-05-12 00:25:36 GMT 40.030594 -103.497139 21,725 85 393 1344
2021-05-12 00:25:32 GMT 40.030106 -103.506348 21,650 85 392 1408
2021-05-12 00:25:25 GMT 40.029385 -103.519112 21,525 85 392 1408
2021-05-12 00:25:21 GMT 40.028687 -103.532219 21,400 85 392 1344
2021-05-12 00:25:15 GMT 40.027988 -103.544518 21,275 85 391 1408
2021-05-12 00:25:08 GMT 40.027199 -103.558624 21,125 85 390 1472
2021-05-12 00:25:05 GMT 40.026718 -103.567261 21,050 85 389 1408
2021-05-12 00:24:59 GMT 40.025894 -103.582031 20,900 85 388 1472
2021-05-12 00:24:52 GMT 40.024933 -103.599304 20,700 85 387 1536
2021-05-12 00:24:43 GMT 40.023972 -103.616943 20,525 85 386 1536
2021-05-12 00:24:36 GMT 40.022964 -103.634705 20,250 85 386 1536
2021-05-12 00:24:33 GMT 40.022636 -103.640648 20,200 85 385 1664
2021-05-12 00:24:30 GMT 40.022141 -103.649719 20,150 85 385 1728
2021-05-12 00:24:26 GMT 40.021751 -103.656570 20,050 85 385 1792
2021-05-12 00:24:21 GMT 40.021088 -103.668213 19,925 85 385 1728
2021-05-12 00:24:16 GMT 40.020493 -103.679321 19,775 85 384 1600
2021-05-12 00:24:12 GMT 40.019760 -103.692078 19,650 85 384 1536
2021-05-12 00:24:08 GMT 40.019375 -103.699203 19,550 85 384 1600
2021-05-12 00:24:01 GMT 40.018398 -103.716682 19,350 85 383 1792
2021-05-12 00:23:51 GMT 40.017002 -103.740715 19,050 85 382 1664
2021-05-12 00:23:46 GMT 40.016441 -103.751015 18,925 85 382 1600
2021-05-12 00:23:39 GMT 40.015606 -103.766556 18,625 85 379 1664
2021-05-12 00:23:35 GMT 40.015045 -103.776245 18,625 85 379 1664
2021-05-12 00:23:29 GMT 40.014301 -103.789589 18,450 85 380 1792
2021-05-12 00:23:20 GMT 40.012894 -103.809265 18,175 83 379 1792
2021-05-12 00:23:17 GMT 40.012394 -103.815186 18,100 83 378 1792
2021-05-12 00:23:11 GMT 40.010880 -103.831055 17,900 81 377 1920
2021-05-12 00:23:05 GMT 40.009277 -103.844788 17,700 80 377 1920
2021-05-12 00:23:00 GMT 40.007877 -103.855072 17,550 79 376 1920
2021-05-12 00:22:54 GMT 40.006073 -103.866943 17,200 78 375 1600
2021-05-12 00:22:50 GMT 40.004333 -103.877808 17,275 78 375 1664
2021-05-12 00:22:46 GMT 40.002914 -103.886719 17,150 78 374 1728
2021-05-12 00:22:39 GMT 40.000626 -103.901062 16,975 78 373 1664
2021-05-12 00:22:35 GMT 39.999252 -103.909912 16,800 78 371 1920
2021-05-12 00:22:28 GMT 39.997078 -103.923546 16,650 78 371 1984
2021-05-12 00:22:24 GMT 39.995075 -103.935905 16,475 78 371 1920
2021-05-12 00:22:19 GMT 39.993401 -103.946518 16,325 78 371 1856
2021-05-12 00:22:14 GMT 39.991585 -103.957947 16,175 78 370 1792
2021-05-12 00:22:07 GMT 39.989685 -103.969910 16,025 78 369 1664
2021-05-12 00:22:03 GMT 39.987907 -103.980850 15,875 78 368 1728
2021-05-12 00:21:58 GMT 39.986557 -103.989403 15,700 78 368 1984
2021-05-12 00:21:55 GMT 39.985115 -103.998390 15,625 78 367 2048
2021-05-12 00:21:52 GMT 39.984276 -104.003700 15,550 78 367 1984
2021-05-12 00:21:47 GMT 39.982544 -104.014587 15,375 78 367 1984
2021-05-12 00:21:42 GMT 39.980438 -104.027588 15,200 78 365 1856
2021-05-12 00:21:37 GMT 39.978874 -104.037468 15,050 78 364 1856
2021-05-12 00:21:31 GMT 39.976780 -104.050331 14,875 78 363 1920
2021-05-12 00:21:28 GMT 39.975769 -104.056580 14,775 78 363 1920
2021-05-12 00:21:24 GMT 39.974453 -104.064934 14,650 78 362 1920
2021-05-12 00:21:21 GMT 39.973160 -104.072937 14,525 78 361 1856
2021-05-12 00:21:16 GMT 39.971786 -104.081482 14,400 78 360 1920
2021-05-12 00:21:12 GMT 39.970688 -104.088257 14,300 78 360 1984
2021-05-12 00:21:06 GMT 39.968216 -104.103638 14,050 78 358 1920
2021-05-12 00:21:01 GMT 39.966679 -104.113251 13,925 78 357 1728
2021-05-12 00:20:57 GMT 39.965141 -104.122612 13,800 78 355 1536
2021-05-12 00:20:52 GMT 39.963730 -104.131409 13,700 78 353 1472
2021-05-12 00:20:48 GMT 39.962082 -104.141418 13,600 78 351 1664
2021-05-12 00:20:43 GMT 39.960300 -104.152512 13,425 78 349 1920
2021-05-12 00:20:38 GMT 39.958160 -104.165749 13,175 78 347 2432
2021-05-12 00:20:32 GMT 39.956997 -104.173111 13,025 78 347 2624
2021-05-12 00:20:24 GMT 39.954208 -104.190125 12,650 78 348 2752
2021-05-12 00:20:21 GMT 39.953293 -104.195740 12,550 78 348 2816
2021-05-12 00:20:16 GMT 39.951595 -104.206200 12,225 78 349 2816
2021-05-12 00:20:12 GMT 39.950226 -104.214905 12,100 78 350 2752
2021-05-12 00:20:05 GMT 39.947872 -104.229355 11,825 77 350 1536
2021-05-12 00:20:02 GMT 39.947174 -104.233597 11,775 77 349 1408
2021-05-12 00:19:59 GMT 39.946243 -104.239342 11,725 77 349 1152
2021-05-12 00:19:53 GMT 39.943726 -104.254517 11,700 77 344 64
2021-05-12 00:19:50 GMT 39.943264 -104.257385 11,700 77 344 64
2021-05-12 00:19:43 GMT 39.939606 -104.279663 11,700 77 344 0
2021-05-12 00:19:40 GMT 39.939606 -104.279663 11,700 77 344 64
2021-05-12 00:19:34 GMT 39.937317 -104.293518 11,675 77 344 448
2021-05-12 00:19:30 GMT 39.936329 -104.299644 11,650 77 343 768
2021-05-12 00:19:22 GMT 39.933609 -104.316040 11,450 78 341 1792
2021-05-12 00:19:19 GMT 39.932968 -104.320129 11,400 78 340 1728
2021-05-12 00:19:12 GMT 39.931160 -104.334534 11,200 83 336 1472
2021-05-12 00:19:09 GMT 39.930679 -104.340637 11,125 85 334 1344
2021-05-12 00:19:03 GMT 39.930321 -104.355637 11,000 91 328 832
2021-05-12 00:19:00 GMT 39.930462 -104.361191 10,975 93 323 832
2021-05-12 00:18:53 GMT 39.931274 -104.372437 10,900 98 294 704
2021-05-12 00:18:50 GMT 39.932091 -104.379608 10,675 99 311 1664
2021-05-12 00:18:38 GMT 39.934559 -104.399834 10,525 99 306 1536
2021-05-12 00:18:29 GMT 39.936768 -104.418640 10,225 98 303 1664
2021-05-12 00:18:18 GMT 39.939148 -104.438416 9,975 98 300 1152
2021-05-12 00:18:11 GMT 39.940659 -104.451355 9,850 98 297 960
2021-05-12 00:18:08 GMT 39.941307 -104.456696 9,800 98 296 960
2021-05-12 00:18:02 GMT 39.942379 -104.465996 9,700 98 288 0
2021-05-12 00:17:58 GMT 39.943310 -104.473862 9,700 98 291 64
2021-05-12 00:17:53 GMT 39.944054 -104.480232 9,700 98 290 -64
2021-05-12 00:17:49 GMT 39.944962 -104.488220 9,700 98 290 128
2021-05-12 00:17:45 GMT 39.952221 -104.499924 9,200 88 275 2080
2021-05-12 00:17:43 GMT 39.952179 -104.501579 9,200 88 275 2080
2021-05-12 00:17:42 GMT 39.952141 -104.503227 9,200 88 275 2080
2021-05-12 00:17:41 GMT 39.952099 -104.504890 9,200 88 275 2080
2021-05-12 00:17:40 GMT 39.952019 -104.508202 9,200 88 275 2080
2021-05-12 00:17:38 GMT 39.951981 -104.509857 9,200 88 275 2080
2021-05-12 00:17:37 GMT 39.951939 -104.511513 9,200 88 275 2080
2021-05-12 00:17:36 GMT 39.951900 -104.513168 9,200 88 275 2080
2021-05-12 00:17:35 GMT 39.951859 -104.514816 9,200 88 275 2080
2021-05-12 00:17:33 GMT 39.951778 -104.518143 9,200 88 275 2080
2021-05-12 00:17:32 GMT 39.951740 -104.519791 9,200 88 275 2080
2021-05-12 00:17:31 GMT 39.951698 -104.521446 9,200 88 275 2080
2021-05-12 00:17:29 GMT 39.951618 -104.524757 9,200 88 275 2080
2021-05-12 00:17:28 GMT 39.951580 -104.526413 9,200 88 275 2080
2021-05-12 00:17:27 GMT 39.951542 -104.528069 9,200 88 275 2080
2021-05-12 00:17:25 GMT 39.951462 -104.531380 9,200 88 275 0
2021-05-12 00:17:24 GMT 39.951420 -104.533043 9,200 88 275 0
2021-05-12 00:17:23 GMT 39.951382 -104.534691 9,200 88 275 0
2021-05-12 00:17:22 GMT 39.951340 -104.536346 9,200 88 275 0
2021-05-12 00:17:21 GMT 39.951302 -104.538010 9,200 88 275 0
2021-05-12 00:17:19 GMT 39.951210 -104.541321 9,200 88 275 0
2021-05-12 00:17:17 GMT 39.951130 -104.544632 9,200 88 275 0
2021-05-12 00:17:16 GMT 39.951092 -104.546280 9,200 88 275 0
2021-05-12 00:17:15 GMT 39.951050 -104.547943 9,200 88 275 0
2021-05-12 00:17:13 GMT 39.951118 -104.551727 9,000 88 269 0
2021-05-12 00:17:12 GMT 39.951069 -104.553352 9,000 88 269 0
2021-05-12 00:17:11 GMT 39.951019 -104.554970 9,000 88 269 0
2021-05-12 00:17:10 GMT 39.950981 -104.556587 9,000 88 269 0
2021-05-12 00:17:09 GMT 39.950279 -104.559914 8,700 90 265 0
2021-05-12 00:17:07 GMT 39.950291 -104.561501 8,700 90 265 0
2021-05-12 00:17:06 GMT 39.950310 -104.563103 8,700 90 265 0
2021-05-12 00:17:04 GMT 39.949879 -104.566223 8,700 91 267 0
2021-05-12 00:17:03 GMT 39.949928 -104.567833 8,700 91 267 0
2021-05-12 00:17:02 GMT 39.949982 -104.569443 8,700 91 267 0
2021-05-12 00:17:01 GMT 39.950039 -104.571037 8,700 91 267 0
2021-05-12 00:16:59 GMT 39.950150 -104.574127 8,500 89 271 0
2021-05-12 00:16:58 GMT 39.950169 -104.575768 8,500 89 271 0
2021-05-12 00:16:57 GMT 39.950191 -104.579033 8,500 89 271 0
2021-05-12 00:16:55 GMT 39.950310 -104.580597 8,400 87 274 0
2021-05-12 00:16:54 GMT 39.950218 -104.583900 8,400 87 274 0
2021-05-12 00:16:53 GMT 39.950180 -104.585487 8,400 87 276 0
2021-05-12 00:16:51 GMT 39.950169 -104.587151 8,300 85 275 0
2021-05-12 00:16:50 GMT 39.950119 -104.588791 8,300 85 275 0
2021-05-12 00:16:48 GMT 39.949940 -104.592079 8,300 83 274 0
2021-05-12 00:16:47 GMT 39.949821 -104.593727 8,300 83 272 0
2021-05-12 00:16:46 GMT 39.949699 -104.595299 8,200 82 273 0
2021-05-12 00:16:45 GMT 39.949348 -104.598709 8,200 81 261 0
2021-05-12 00:16:43 GMT 39.949188 -104.600151 8,200 80 267 0
2021-05-12 00:16:42 GMT 39.949039 -104.601700 8,200 79 268 0
2021-05-12 00:16:41 GMT 39.948849 -104.603302 8,200 78 267 0
2021-05-12 00:16:39 GMT 39.948391 -104.606499 8,200 77 261 0
2021-05-12 00:16:38 GMT 39.947910 -104.609558 8,100 75 259 0
2021-05-12 00:16:36 GMT 39.947651 -104.611038 8,100 74 259 0
2021-05-12 00:16:35 GMT 39.947361 -104.612556 8,100 74 257 0
2021-05-12 00:16:34 GMT 39.947060 -104.614159 8,100 73 251 -160
2021-05-12 00:16:33 GMT 39.946461 -104.617104 8,000 71 247 832
2021-05-12 00:16:31 GMT 39.946140 -104.618538 8,000 70 246 832
2021-05-12 00:16:30 GMT 39.945770 -104.619949 8,000 70 244 832
2021-05-12 00:16:28 GMT 39.945061 -104.622719 8,000 68 243 832
2021-05-12 00:16:27 GMT 39.944691 -104.624077 8,000 68 243 832
2021-05-12 00:16:26 GMT 39.944302 -104.625397 8,000 68 244 832
2021-05-12 00:16:24 GMT 39.943451 -104.628273 8,000 68 232 768
2021-05-12 00:16:23 GMT 39.943062 -104.629623 7,900 68 230 768
2021-05-12 00:16:22 GMT 39.942638 -104.630943 7,900 68 228 768
2021-05-12 00:16:21 GMT 39.942249 -104.632118 7,900 68 232 768
2021-05-12 00:16:20 GMT 39.941422 -104.634850 7,900 68 224 768
2021-05-12 00:16:18 GMT 39.941029 -104.636169 7,800 68 221 768
2021-05-12 00:16:17 GMT 39.940701 -104.637283 7,800 68 229 768
2021-05-12 00:16:16 GMT 39.940331 -104.638458 7,800 68 231 768
2021-05-12 00:16:14 GMT 39.939571 -104.641037 7,600 68 231 768
2021-05-12 00:16:13 GMT 39.939152 -104.642448 7,600 68 224 768
2021-05-12 00:16:12 GMT 39.938770 -104.643707 7,600 68 224 768
2021-05-12 00:16:10 GMT 39.937962 -104.646477 7,600 68 209 768
2021-05-12 00:16:09 GMT 39.937611 -104.647629 7,225 68 212 768
2021-05-12 00:16:08 GMT 39.937260 -104.648781 7,225 68 214 768
2021-05-12 00:16:06 GMT 39.936520 -104.651192 7,225 69 215 768
2021-05-12 00:16:05 GMT 39.936161 -104.652260 7,225 69 224 768
2021-05-12 00:16:04 GMT 39.935780 -104.653587 7,225 69 218 768
2021-05-12 00:16:03 GMT 39.935459 -104.654762 7,225 69 222 768
2021-05-12 00:16:01 GMT 39.934711 -104.657242 7,225 69 224 768
2021-05-12 00:16:00 GMT 39.934399 -104.658508 7,100 68 223 768
2021-05-12 00:15:59 GMT 39.933979 -104.659790 7,100 69 218 768
2021-05-12 00:15:57 GMT 39.933220 -104.662239 7,000 69 218 768
2021-05-12 00:15:56 GMT 39.932869 -104.663513 7,000 69 216 768
2021-05-12 00:15:55 GMT 39.932110 -104.665840 6,800 69 222 768
2021-05-12 00:15:54 GMT 39.931740 -104.667068 6,800 68 222 768
2021-05-12 00:15:52 GMT 39.931351 -104.668289 6,800 68 222 768
2021-05-12 00:15:51 GMT 39.930939 -104.669487 6,800 68 222 768
2021-05-12 00:15:50 GMT 39.930538 -104.670723 6,800 67 221 768
2021-05-12 00:15:48 GMT 39.929729 -104.673149 6,800 65 218 768
2021-05-12 00:15:47 GMT 39.929310 -104.674309 6,800 64 218 768
2021-05-12 00:15:46 GMT 39.928879 -104.675461 6,750 63 219 768
2021-05-12 00:15:45 GMT 39.928471 -104.676598 6,750 61 220 768
2021-05-12 00:15:43 GMT 39.927540 -104.678940 6,600 55 216 768
2021-05-12 00:15:42 GMT 39.927059 -104.680023 6,600 52 215 768
2021-05-12 00:15:41 GMT 39.926460 -104.681053 6,600 51 215 768
2021-05-12 00:15:39 GMT 39.925282 -104.683083 6,600 46 211 768
2021-05-12 00:15:38 GMT 39.924641 -104.684021 6,600 44 211 768
2021-05-12 00:15:37 GMT 39.924000 -104.684959 6,600 42 209 768
2021-05-12 00:15:36 GMT 39.923302 -104.685837 6,600 39 206 768
2021-05-12 00:15:35 GMT 39.922600 -104.686691 6,600 37 204 768
2021-05-12 00:15:33 GMT 39.921150 -104.688179 6,600 32 202 768
2021-05-12 00:15:32 GMT 39.920399 -104.688873 6,600 29 201 768
2021-05-12 00:15:31 GMT 39.918812 -104.690086 6,575 25 198 768
2021-05-12 00:15:29 GMT 39.918018 -104.690628 6,550 23 198 768
2021-05-12 00:15:28 GMT 39.916401 -104.691681 6,525 18 194 768
2021-05-12 00:15:27 GMT 39.915550 -104.692101 6,525 16 190 768
2021-05-12 00:15:25 GMT 39.914711 -104.692459 6,500 14 188 768
2021-05-12 00:15:24 GMT 39.913872 -104.692772 6,500 12 186 256
2021-05-12 00:15:23 GMT 39.912189 -104.693382 6,400 7 181 256
2021-05-12 00:15:21 GMT 39.911400 -104.693604 6,400 6 182 256
2021-05-12 00:15:20 GMT 39.910519 -104.693733 6,400 6 177 256
2021-05-12 00:15:18 GMT 39.908932 -104.693977 6,425 4 179 256
2021-05-12 00:15:17 GMT 39.907280 -104.694160 6,375 4 176 256
2021-05-12 00:15:15 GMT 39.906448 -104.694229 6,375 4 174 256
2021-05-12 00:15:14 GMT 39.905621 -104.694313 6,375 4 171 256
2021-05-12 00:15:12 GMT 39.903980 -104.694473 6,300 4 162 256
2021-05-12 00:15:11 GMT 39.903210 -104.694550 6,300 4 161 256
2021-05-12 00:15:10 GMT 39.902500 -104.694641 6,300 4 164 256
2021-05-12 00:15:08 GMT 39.901001 -104.694839 6,250 2 165 256
2021-05-12 00:15:07 GMT 39.900211 -104.694839 6,250 4 159 256
2021-05-12 00:15:06 GMT 39.899490 -104.694893 5,850 5 163 256
2021-05-12 00:15:04 GMT 39.897968 -104.695084 5,850 4 160 256
2021-05-12 00:15:03 GMT 39.897270 -104.695129 5,850 4 164 256
2021-05-12 00:15:02 GMT 39.895748 -104.695259 5,850 5 162 256
2021-05-12 00:15:00 GMT 39.894989 -104.695374 5,850 4 161 256
2021-05-12 00:14:59 GMT 39.894230 -104.695480 5,850 3 158 256
2021-05-12 00:14:57 GMT 39.892780 -104.695572 5,850 3 161 256
2021-05-12 00:14:56 GMT 39.892052 -104.695648 5,850 2 162 256
2021-05-12 00:14:55 GMT 39.891300 -104.695686 5,850 3 162 256
2021-05-12 00:14:54 GMT 39.890541 -104.695740 5,675 3 160 256
2021-05-12 00:14:52 GMT 39.889050 -104.695847 5,675 2 158 256
2021-05-12 00:14:51 GMT 39.888351 -104.695892 5,675 2 162 256
2021-05-12 00:14:50 GMT 39.887581 -104.695953 5,675 2 159 256
2021-05-12 00:14:48 GMT 39.886108 -104.696030 5,650 2 159 256
2021-05-12 00:14:47 GMT 39.885361 -104.696091 5,550 1 155 256
2021-05-12 00:14:46 GMT 39.883911 -104.696121 5,550 1 157 256
2021-05-12 00:14:44 GMT 39.883171 -104.696152 5,475 1 156 256
2021-05-12 00:14:43 GMT 39.882439 -104.696167 5,475 1 156 256
2021-05-12 00:14:42 GMT 39.881741 -104.696220 5,125 0 160 256
2021-05-12 00:14:40 GMT 39.880268 -104.696251 5,125 0 160 256
2021-05-12 00:14:39 GMT 39.879509 -104.696251 5,125 0 157 256
2021-05-12 00:14:38 GMT 39.878780 -104.696259 5,125 359 158 256
2021-05-12 00:14:37 GMT 39.878052 -104.696243 5,125 0 160 256
2021-05-12 00:14:36 GMT 39.876591 -104.696274 5,125 0 163 256
2021-05-12 00:14:34 GMT 39.875832 -104.696259 5,100 0 161 256
2021-05-12 00:14:33 GMT 39.875069 -104.696274 5,050 0 160 256
2021-05-12 00:14:32 GMT 39.874359 -104.696297 5,025 0 166 256
2021-05-12 00:14:31 GMT 39.872871 -104.696320 4,975 0 167 -160
2021-05-12 00:14:29 GMT 39.872082 -104.696327 4,975 0 163 -160
2021-05-12 00:14:28 GMT 39.871311 -104.696297 4,975 1 161 -160
2021-05-12 00:14:27 GMT 39.870571 -104.696342 5,000 0 159 -160
2021-05-12 00:14:26 GMT 39.869091 -104.696381 5,000 0 153 0
2021-05-12 00:14:24 GMT 39.868389 -104.696404 5,000 0 151 0
2021-05-12 00:14:23 GMT 39.867680 -104.696404 5,000 0 148 0
2021-05-12 00:14:22 GMT 39.866982 -104.696411 5,000 0 144 0
2021-05-12 00:14:21 GMT 39.865662 -104.696419 5,000 0 140 0
2021-05-12 00:14:19 GMT 39.865002 -104.696426 5,000 0 138 0
2021-05-12 00:14:18 GMT 39.863708 -104.696419 5,000 1 131 0
2021-05-12 00:14:16 GMT 39.863098 -104.696426 5,000 1 128 64
2021-05-12 00:14:15 GMT 39.862511 -104.696457 5,000 0 126 64
2021-05-12 00:14:14 GMT 39.861931 -104.696457 5,000 1 123 64
2021-05-12 00:14:12 GMT 39.860790 -104.696503 5,000 0 115 64
2021-05-12 00:14:11 GMT 39.860241 -104.696510 5,000 359 111 64
2021-05-12 00:14:10 GMT 39.859249 -104.696533 5,025 359 107 -224
2021-05-12 00:14:08 GMT 39.858700 -104.696487 5,025 1 99 -224
2021-05-12 00:14:07 GMT 39.858238 -104.696510 5,025 0 97 -224
2021-05-12 00:14:06 GMT 39.857792 -104.696518 5,025 0 94 -224
2021-05-12 00:14:04 GMT 39.856918 -104.696548 5,025 359 86 0
2021-05-12 00:14:03 GMT 39.856499 -104.696487 5,025 1 80 0
2021-05-12 00:14:02 GMT 39.856140 -104.696533 5,025 0 80 0
2021-05-12 00:14:01 GMT 39.855419 -104.696548 5,025 0 72 0
2021-05-12 00:13:59 GMT 39.855061 -104.696541 0 0 66 0
2021-05-12 00:13:57 GMT 39.854462 -104.696548 0 359 60 0
2021-05-12 00:13:56 GMT 39.854172 -104.696541 0 0 54 0
2021-05-12 00:13:55 GMT 39.853920 -104.696571 0 358 49 0
2021-05-12 00:13:54 GMT 39.853439 -104.696548 0 359 39 0
2021-05-12 00:13:52 GMT 39.853241 -104.696548 0 359 34 0
2021-05-12 00:13:51 GMT 39.853050 -104.696533 0 2 27 0
2021-05-12 00:13:50 GMT 39.852871 -104.696541 0 3 20 0
2021-05-12 00:13:48 GMT 39.852619 -104.696548 0 0 11 0
2021-05-12 00:13:47 GMT 39.852558 -104.696564 0 357 9 0
2021-05-12 00:13:46 GMT 39.852451 -104.696564 0 357 5 0
2021-05-12 00:13:44 GMT 39.852421 -104.696564 0 2 5 0
2021-05-12 00:13:43 GMT 39.852390 -104.696533 0 15 4 0
2021-05-12 00:13:42 GMT 39.852371 -104.696541 0 4 4 0
2021-05-12 00:13:41 GMT 39.852329 -104.696571 0 0 0 0
2021-05-12 00:13:39 GMT 39.852310 -104.696541 0 0 0 0
2021-05-12 00:13:36 GMT 39.852329 -104.696548 0 0 3 0
2021-05-12 00:13:35 GMT 39.852310 -104.696564 0 1 4 0
2021-05-12 00:13:33 GMT 39.852291 -104.696571 0 2 4 0
2021-05-12 00:13:32 GMT 39.852268 -104.696541 0 14 5 0
2021-05-12 00:13:31 GMT 39.852211 -104.696587 0 356 3 0
2021-05-12 00:13:29 GMT 39.852211 -104.696579 0 353 5 0
2021-05-12 00:13:28 GMT 39.852188 -104.696587 0 348 5 0
2021-05-12 00:13:26 GMT 39.852112 -104.696602 0 311 5 0
2021-05-12 00:13:24 GMT 39.852081 -104.696602 0 301 6 0
2021-05-12 00:13:23 GMT 39.852081 -104.696564 0 317 6 0
2021-05-12 00:13:22 GMT 39.852039 -104.696533 0 276 5 0
2021-05-12 00:13:21 GMT 39.852051 -104.696503 0 273 6 0
2021-05-12 00:13:19 GMT 39.852032 -104.696449 0 269 6 0
2021-05-12 00:13:18 GMT 39.852032 -104.696442 0 272 9 0
2021-05-12 00:13:17 GMT 39.852020 -104.696358 0 271 12 0
2021-05-12 00:13:15 GMT 39.852020 -104.696297 0 266 15 0
2021-05-12 00:13:13 GMT 39.852020 -104.696129 0 271 14 0
2021-05-12 00:13:12 GMT 39.852009 -104.696053 0 267 15 0
2021-05-12 00:13:11 GMT 39.852020 -104.695976 0 270 17 0
2021-05-12 00:13:10 GMT 39.852020 -104.695869 0 270 16 0
2021-05-12 00:13:09 GMT 39.852032 -104.695686 0 274 17 0
2021-05-12 00:13:07 GMT 39.852020 -104.695602 0 273 18 0
2021-05-12 00:13:06 GMT 39.852020 -104.695480 0 274 17 0
2021-05-12 00:13:04 GMT 39.852001 -104.695259 0 270 16 0
2021-05-12 00:13:03 GMT 39.851990 -104.695160 0 267 15 0
2021-05-12 00:13:01 GMT 39.852001 -104.694969 0 270 14 0
2021-05-12 00:13:00 GMT 39.852009 -104.694908 0 271 16 0
2021-05-12 00:12:59 GMT 39.852001 -104.694832 0 269 17 0
2021-05-12 00:12:58 GMT 39.852001 -104.694618 0 266 16 0
2021-05-12 00:12:56 GMT 39.852020 -104.694420 0 271 13 0
2021-05-12 00:12:54 GMT 39.852009 -104.694351 0 270 14 0
2021-05-12 00:12:53 GMT 39.852009 -104.694313 0 270 17 0
2021-05-12 00:12:52 GMT 39.852009 -104.694191 0 271 16 0
2021-05-12 00:12:50 GMT 39.852009 -104.694023 0 271 18 0
2021-05-12 00:12:49 GMT 39.852009 -104.693916 0 273 18 0
2021-05-12 00:12:48 GMT 39.851978 -104.693710 0 268 19 0
2021-05-12 00:12:46 GMT 39.851990 -104.693604 0 268 19 0
2021-05-12 00:12:45 GMT 39.852001 -104.693489 0 270 19 0
2021-05-12 00:12:43 GMT 39.852001 -104.693268 0 272 21 0
2021-05-12 00:12:42 GMT 39.852001 -104.693176 0 273 24 0
2021-05-12 00:12:40 GMT 39.851959 -104.692909 0 269 24 0
2021-05-12 00:12:39 GMT 39.851971 -104.692741 0 269 22 0
2021-05-12 00:12:38 GMT 39.851971 -104.692627 0 270 25 0
2021-05-12 00:12:37 GMT 39.851971 -104.692490 0 271 25 0
2021-05-12 00:12:35 GMT 39.851959 -104.692192 0 270 24 0
2021-05-12 00:12:34 GMT 39.851959 -104.692039 0 271 24 0
2021-05-12 00:12:33 GMT 39.851952 -104.691933 0 269 27 0
2021-05-12 00:12:31 GMT 39.851959 -104.691643 0 270 30 0
2021-05-12 00:12:30 GMT 39.851952 -104.691460 0 268 31 0
2021-05-12 00:12:29 GMT 39.851971 -104.691238 0 271 28 0
2021-05-12 00:12:28 GMT 39.851952 -104.690910 0 267 28 0
2021-05-12 00:12:26 GMT 39.851952 -104.690742 0 267 28 0
2021-05-12 00:12:25 GMT 39.851952 -104.690552 0 266 26 0
2021-05-12 00:12:24 GMT 39.851971 -104.690262 0 269 29 0
2021-05-12 00:12:22 GMT 39.851971 -104.690063 0 269 27 0
2021-05-12 00:12:21 GMT 39.851978 -104.689888 0 272 25 0
2021-05-12 00:12:20 GMT 39.851952 -104.689758 0 265 27 0
2021-05-12 00:12:19 GMT 39.851971 -104.689407 0 266 25 0
2021-05-12 00:12:17 GMT 39.852001 -104.689262 0 272 24 0
2021-05-12 00:12:16 GMT 39.851978 -104.689110 0 268 25 0
2021-05-12 00:12:15 GMT 39.851978 -104.688950 0 268 24 0
2021-05-12 00:12:14 GMT 39.851978 -104.688660 0 265 25 0
2021-05-12 00:12:12 GMT 39.852001 -104.688507 0 271 24 0
2021-05-12 00:12:10 GMT 39.852001 -104.688210 0 269 22 0
2021-05-12 00:12:08 GMT 39.852001 -104.687943 0 266 22 0
2021-05-12 00:12:07 GMT 39.852009 -104.687798 0 270 20 0
2021-05-12 00:12:06 GMT 39.852009 -104.687553 0 267 20 0
2021-05-12 00:12:04 GMT 39.852009 -104.687431 0 264 21 0
2021-05-12 00:12:03 GMT 39.852032 -104.687286 0 270 19 0
2021-05-12 00:12:02 GMT 39.852032 -104.687073 0 268 20 0
2021-05-12 00:12:00 GMT 39.852020 -104.686928 0 265 19 0
2021-05-12 00:11:59 GMT 39.852032 -104.686821 0 267 18 0
2021-05-12 00:11:58 GMT 39.852051 -104.686699 0 272 17 0
2021-05-12 00:11:56 GMT 39.852039 -104.686501 0 268 17 0
2021-05-12 00:11:55 GMT 39.852032 -104.686401 0 264 18 0
2021-05-12 00:11:54 GMT 39.852039 -104.686272 0 266 17 0
2021-05-12 00:11:52 GMT 39.852058 -104.686058 0 269 15 0
2021-05-12 00:11:51 GMT 39.852058 -104.685966 0 272 15 0
2021-05-12 00:11:49 GMT 39.852039 -104.685791 0 265 14 0
2021-05-12 00:11:48 GMT 39.852039 -104.685692 0 268 12 0
2021-05-12 00:11:47 GMT 39.852058 -104.685631 0 270 13 0
2021-05-12 00:11:46 GMT 39.852039 -104.685577 0 263 17 0
2021-05-12 00:11:44 GMT 39.852058 -104.685379 0 266 14 0
2021-05-12 00:11:43 GMT 39.852081 -104.685303 0 273 15 0
2021-05-12 00:11:42 GMT 39.852070 -104.685211 0 270 15 0
2021-05-12 00:11:40 GMT 39.852089 -104.685043 0 276 14 0
2021-05-12 00:11:39 GMT 39.852070 -104.684959 0 271 13 0
2021-05-12 00:11:37 GMT 39.852058 -104.684708 0 256 11 0
2021-05-12 00:11:36 GMT 39.852058 -104.684631 0 253 10 0
2021-05-12 00:11:34 GMT 39.852081 -104.684593 0 253 11 0
2021-05-12 00:11:33 GMT 39.852081 -104.684532 0 246 12 0
2021-05-12 00:11:32 GMT 39.852131 -104.684402 0 248 11 0
2021-05-12 00:11:31 GMT 39.852139 -104.684349 0 239 12 0
2021-05-12 00:11:29 GMT 39.852161 -104.684273 0 226 10 0
2021-05-12 00:11:28 GMT 39.852161 -104.684196 0 219 10 0
2021-05-12 00:11:26 GMT 39.852242 -104.684097 0 194 10 0
2021-05-12 00:11:25 GMT 39.852299 -104.684059 0 186 7 0
2021-05-12 00:11:24 GMT 39.852322 -104.684052 0 188 9 0
2021-05-12 00:11:23 GMT 39.852348 -104.684036 0 189 9 0
2021-05-12 00:11:22 GMT 39.852390 -104.684052 0 190 10 0
2021-05-12 00:11:20 GMT 39.852470 -104.683998 0 179 10 0
2021-05-12 00:11:19 GMT 39.852509 -104.684013 0 180 12 0
2021-05-12 00:11:17 GMT 39.852612 -104.684013 0 187 14 0
2021-05-12 00:11:16 GMT 39.852669 -104.683968 0 175 14 0
2021-05-12 00:11:15 GMT 39.852810 -104.683998 0 181 15 0
2021-05-12 00:11:14 GMT 39.852871 -104.683960 0 172 15 0
2021-05-12 00:11:12 GMT 39.852940 -104.683983 0 173 15 0
2021-05-12 00:11:11 GMT 39.853008 -104.684021 0 184 15 0
2021-05-12 00:11:10 GMT 39.853062 -104.683990 0 176 18 0
2021-05-12 00:11:08 GMT 39.853230 -104.684013 0 178 16 0
2021-05-12 00:11:07 GMT 39.853310 -104.684052 0 188 16 0
2021-05-12 00:11:05 GMT 39.853458 -104.684013 0 182 14 0
2021-05-12 00:11:04 GMT 39.853531 -104.684013 0 181 14 0
2021-05-12 00:11:03 GMT 39.853668 -104.683998 0 181 14 0
2021-05-12 00:11:01 GMT 39.853722 -104.683990 0 179 15 0
2021-05-12 00:11:00 GMT 39.853779 -104.683968 0 173 15 0
2021-05-12 00:10:58 GMT 39.853909 -104.683998 0 181 15 0
2021-05-12 00:10:57 GMT 39.853989 -104.684021 0 184 14 0
2021-05-12 00:10:56 GMT 39.854038 -104.683998 0 183 16 0
2021-05-12 00:10:55 GMT 39.854179 -104.683983 0 178 15 0
2021-05-12 00:10:53 GMT 39.854252 -104.683983 0 178 14 0
2021-05-12 00:10:52 GMT 39.854328 -104.683983 0 177 13 0
2021-05-12 00:10:49 GMT 39.854542 -104.684029 0 188 12 0
2021-05-12 00:10:48 GMT 39.854649 -104.683990 0 181 11 0
2021-05-12 00:10:46 GMT 39.854691 -104.683983 0 177 14 0
2021-05-12 00:10:45 GMT 39.854771 -104.683983 0 172 12 0
2021-05-12 00:10:44 GMT 39.854809 -104.683968 0 169 14 0
2021-05-12 00:10:43 GMT 39.854950 -104.684029 0 183 13 0
2021-05-12 00:10:41 GMT 39.855019 -104.683998 0 184 13 0
2021-05-12 00:10:40 GMT 39.855080 -104.684029 0 185 12 0
2021-05-12 00:10:39 GMT 39.855129 -104.684013 0 183 13 0
2021-05-12 00:10:37 GMT 39.855251 -104.684021 0 188 12 0
2021-05-12 00:10:35 GMT 39.855331 -104.683937 0 168 15 0
2021-05-12 00:10:34 GMT 39.855389 -104.683960 0 171 14 0
2021-05-12 00:10:33 GMT 39.855461 -104.683983 0 184 13 0
2021-05-12 00:10:32 GMT 39.855530 -104.683990 0 194 12 0
2021-05-12 00:10:30 GMT 39.855621 -104.683968 0 205 14 0
2021-05-12 00:10:29 GMT 39.855701 -104.683960 0 224 12 0
2021-05-12 00:10:28 GMT 39.855751 -104.683929 0 230 12 0
2021-05-12 00:10:26 GMT 39.855831 -104.683838 0 238 11 0
2021-05-12 00:10:25 GMT 39.855850 -104.683807 0 244 14 0
2021-05-12 00:10:24 GMT 39.855900 -104.683708 0 252 11 0
2021-05-12 00:10:23 GMT 39.855919 -104.683662 0 258 11 0
2021-05-12 00:10:21 GMT 39.855949 -104.683517 0 268 9 0
2021-05-12 00:10:20 GMT 39.855968 -104.683510 0 270 12 0
2021-05-12 00:10:19 GMT 39.855942 -104.683418 0 262 11 0
2021-05-12 00:10:17 GMT 39.855968 -104.683311 0 270 14 0
2021-05-12 00:10:16 GMT 39.855949 -104.683212 0 265 12 0
2021-05-12 00:10:15 GMT 39.855968 -104.683121 0 268 10 0
2021-05-12 00:10:14 GMT 39.855980 -104.683006 0 266 11 0
2021-05-12 00:10:13 GMT 39.855961 -104.682938 0 261 11 0
2021-05-12 00:10:11 GMT 39.855968 -104.682877 0 263 11 0
2021-05-12 00:10:10 GMT 39.855980 -104.682808 0 265 11 0
2021-05-12 00:10:09 GMT 39.855980 -104.682747 0 263 12 0
2021-05-12 00:10:07 GMT 39.855991 -104.682610 0 259 12 0
2021-05-12 00:10:06 GMT 39.855991 -104.682510 0 255 10 0
2021-05-12 00:10:05 GMT 39.855991 -104.682388 0 244 9 0
2021-05-12 00:10:03 GMT 39.856022 -104.682358 0 247 10 0
2021-05-12 00:10:02 GMT 39.856022 -104.682251 0 244 8 0
2021-05-12 00:10:01 GMT 39.856049 -104.682243 0 248 10 0
2021-05-12 00:09:59 GMT 39.856098 -104.682167 0 249 13 0
2021-05-12 00:09:58 GMT 39.856098 -104.682068 0 239 12 0
2021-05-12 00:09:56 GMT 39.856178 -104.681892 0 234 9 0
2021-05-12 00:09:54 GMT 39.856190 -104.681824 0 225 9 0
2021-05-12 00:09:52 GMT 39.856232 -104.681770 0 227 11 0
2021-05-12 00:09:51 GMT 39.856270 -104.681709 0 225 11 0
2021-05-12 00:09:50 GMT 39.856312 -104.681641 0 227 9 0
2021-05-12 00:09:49 GMT 39.856361 -104.681610 0 226 8 0
2021-05-12 00:09:48 GMT 39.856411 -104.681534 0 240 9 0
2021-05-12 00:09:46 GMT 39.856461 -104.681511 0 245 10 0
2021-05-12 00:09:45 GMT 39.856461 -104.681450 0 242 10 0
2021-05-12 00:09:43 GMT 39.856491 -104.681290 0 232 8 0
2021-05-12 00:09:42 GMT 39.856522 -104.681267 0 234 7 0
2021-05-12 00:09:41 GMT 39.856548 -104.681229 0 232 7 0
2021-05-12 00:09:39 GMT 39.856571 -104.681137 0 217 6 0
2021-05-12 00:09:38 GMT 39.856571 -104.681099 0 213 7 0
2021-05-12 00:09:37 GMT 39.856602 -104.681084 0 218 7 0
2021-05-12 00:09:35 GMT 39.856670 -104.681053 0 223 6 0
2021-05-12 00:09:34 GMT 39.856682 -104.681023 0 220 6 0
2021-05-12 00:09:33 GMT 39.856709 -104.681000 0 219 7 0
2021-05-12 00:09:32 GMT 39.856750 -104.680923 0 199 6 0
2021-05-12 00:09:30 GMT 39.856750 -104.680870 0 194 6 0
2021-05-12 00:09:29 GMT 39.856781 -104.680862 0 201 6 0
2021-05-12 00:09:28 GMT 39.856800 -104.680870 0 208 7 0
2021-05-12 00:09:26 GMT 39.856880 -104.680847 0 211 6 0
2021-05-12 00:09:25 GMT 39.856899 -104.680817 0 203 5 0
2021-05-12 00:09:24 GMT 39.856918 -104.680801 0 198 4 0
2021-05-12 00:09:22 GMT 39.856941 -104.680794 0 193 7
2021-05-12 00:09:21 GMT 39.856979 -104.680763 0 191 6

Making use of Plane Finder data

You are free to use the raw flight data, aircraft information and images provided in this report for your own purposes provided the data is correctly attributed to Plane Finder. We ask that you please credit Plane Finder and link to planefinder.net in close proximity to the content.

Optionally one of the following logos (no smaller then 150x24px) can be used and must link to planefinder.net

Embedding the Plane Finder map

You are welcome to embed the Plane Finder playback map on your website to offer visitors a more interactive experience. We suggest using the following HTML code:

<iframe src="//planefinder.net/data/report/UA4670-N121SY-7700-squawk-2021-05-12/map" width="800" height="600" seamless="seamless"></iframe>

Where our data comes from

Plane Finder has a global network of data feeds and antenna radars that receive data broadcast directly from aircraft. The primary technologies used are ADS-B and MLAT. We also show feeds from the FAA and a FLARM glider feed.

Click here to find out more about the Plane Finder network.

How we collect our data